﻿<?xml version="1.0" encoding="utf-8"?><gpx creator="Garmin Desktop App" version="1.1" xsi:schemaLocation="http://www.topografix.com/GPX/1/1 http://www.topografix.com/GPX/1/1/gpx.xsd http://www.garmin.com/xmlschemas/WaypointExtension/v1 http://www8.garmin.com/xmlschemas/WaypointExtensionv1.xsd http://www.garmin.com/xmlschemas/TrackPointExtension/v1 http://www.garmin.com/xmlschemas/TrackPointExtensionv1.xsd http://www.garmin.com/xmlschemas/GpxExtensions/v3 http://www8.garmin.com/xmlschemas/GpxExtensionsv3.xsd http://www.garmin.com/xmlschemas/ActivityExtension/v1 http://www8.garmin.com/xmlschemas/ActivityExtensionv1.xsd http://www.garmin.com/xmlschemas/AdventuresExtensions/v1 http://www8.garmin.com/xmlschemas/AdventuresExtensionv1.xsd http://www.garmin.com/xmlschemas/PressureExtension/v1 http://www.garmin.com/xmlschemas/PressureExtensionv1.xsd http://www.garmin.com/xmlschemas/TripExtensions/v1 http://www.garmin.com/xmlschemas/TripExtensionsv1.xsd http://www.garmin.com/xmlschemas/TripMetaDataExtensions/v1 http://www.garmin.com/xmlschemas/TripMetaDataExtensionsv1.xsd http://www.garmin.com/xmlschemas/ViaPointTransportationModeExtensions/v1 http://www.garmin.com/xmlschemas/ViaPointTransportationModeExtensionsv1.xsd http://www.garmin.com/xmlschemas/CreationTimeExtension/v1 http://www.garmin.com/xmlschemas/CreationTimeExtensionsv1.xsd http://www.garmin.com/xmlschemas/AccelerationExtension/v1 http://www.garmin.com/xmlschemas/AccelerationExtensionv1.xsd http://www.garmin.com/xmlschemas/PowerExtension/v1 http://www.garmin.com/xmlschemas/PowerExtensionv1.xsd http://www.garmin.com/xmlschemas/VideoExtension/v1 http://www.garmin.com/xmlschemas/VideoExtensionv1.xsd" xmlns="http://www.topografix.com/GPX/1/1" xmlns:xsi="http://www.w3.org/2001/XMLSchema-instance" xmlns:wptx1="http://www.garmin.com/xmlschemas/WaypointExtension/v1" xmlns:gpxtrx="http://www.garmin.com/xmlschemas/GpxExtensions/v3" xmlns:gpxtpx="http://www.garmin.com/xmlschemas/TrackPointExtension/v1" xmlns:gpxx="http://www.garmin.com/xmlschemas/GpxExtensions/v3" xmlns:trp="http://www.garmin.com/xmlschemas/TripExtensions/v1" xmlns:adv="http://www.garmin.com/xmlschemas/AdventuresExtensions/v1" xmlns:prs="http://www.garmin.com/xmlschemas/PressureExtension/v1" xmlns:tmd="http://www.garmin.com/xmlschemas/TripMetaDataExtensions/v1" xmlns:vptm="http://www.garmin.com/xmlschemas/ViaPointTransportationModeExtensions/v1" xmlns:ctx="http://www.garmin.com/xmlschemas/CreationTimeExtension/v1" xmlns:gpxacc="http://www.garmin.com/xmlschemas/AccelerationExtension/v1" xmlns:gpxpx="http://www.garmin.com/xmlschemas/PowerExtension/v1" xmlns:vidx1="http://www.garmin.com/xmlschemas/VideoExtension/v1">

  <metadata>
    <link href="http://www.garmin.com">
      <text>Garmin International</text>
    </link>
    <time>2021-01-31T14:55:32Z</time>
    <bounds maxlat="46.045525828376412" maxlon="8.832212118431926" minlat="46.039991090074182" minlon="8.800776042044163" />
  </metadata>

  <trk>
    <name>monte-lema-da-fragaletto2021-01-31</name>
    <extensions>
      <gpxx:TrackExtension>
        <gpxx:DisplayColor>Yellow</gpxx:DisplayColor>
      </gpxx:TrackExtension>
      <gpxtrkx:TrackStatsExtension xmlns:gpxtrkx="http://www.garmin.com/xmlschemas/TrackStatsExtension/v1">
        <gpxtrkx:Distance>7375</gpxtrkx:Distance>
        <gpxtrkx:TotalElapsedTime>15243</gpxtrkx:TotalElapsedTime>
        <gpxtrkx:MovingTime>9486</gpxtrkx:MovingTime>
        <gpxtrkx:StoppedTime>5751</gpxtrkx:StoppedTime>
        <gpxtrkx:MovingSpeed>1</gpxtrkx:MovingSpeed>
        <gpxtrkx:MaxSpeed>2</gpxtrkx:MaxSpeed>
        <gpxtrkx:MaxElevation>1615</gpxtrkx:MaxElevation>
        <gpxtrkx:MinElevation>996</gpxtrkx:MinElevation>
        <gpxtrkx:Ascent>616</gpxtrkx:Ascent>
        <gpxtrkx:Descent>635</gpxtrkx:Descent>
        <gpxtrkx:AvgAscentRate>0</gpxtrkx:AvgAscentRate>
        <gpxtrkx:MaxAscentRate>0</gpxtrkx:MaxAscentRate>
        <gpxtrkx:AvgDescentRate>0</gpxtrkx:AvgDescentRate>
        <gpxtrkx:MaxDescentRate>-1</gpxtrkx:MaxDescentRate>
      </gpxtrkx:TrackStatsExtension>
    </extensions>
    <trkseg>
      <trkpt lat="46.045330194756389" lon="8.800920126959682">
        <ele>1015.3</ele>
        <time>2021-01-31T07:29:09Z</time>
      </trkpt>
      <trkpt lat="46.045327093452215" lon="8.800920629873872">
        <ele>1015.3</ele>
        <time>2021-01-31T07:29:10Z</time>
      </trkpt>
      <trkpt lat="46.045295493677258" lon="8.800907889381051">
        <ele>1014.55</ele>
        <time>2021-01-31T07:29:27Z</time>
      </trkpt>
      <trkpt lat="46.045276550576091" lon="8.800897747278214">
        <ele>1014.62</ele>
        <time>2021-01-31T07:29:44Z</time>
      </trkpt>
      <trkpt lat="46.045256601646543" lon="8.800935801118612">
        <ele>1014.4400000000001</ele>
        <time>2021-01-31T07:30:12Z</time>
      </trkpt>
      <trkpt lat="46.045290715992451" lon="8.80097427405417">
        <ele>1014.41</ele>
        <time>2021-01-31T07:30:23Z</time>
      </trkpt>
      <trkpt lat="46.045320723205805" lon="8.801022805273533">
        <ele>1014.9</ele>
        <time>2021-01-31T07:30:30Z</time>
      </trkpt>
      <trkpt lat="46.045336229726672" lon="8.80112674087286">
        <ele>1015.88</ele>
        <time>2021-01-31T07:30:39Z</time>
      </trkpt>
      <trkpt lat="46.045343102887273" lon="8.801253559067845">
        <ele>1018.4299999999999</ele>
        <time>2021-01-31T07:30:51Z</time>
      </trkpt>
      <trkpt lat="46.045350730419159" lon="8.801399320363998">
        <ele>1021.4299999999999</ele>
        <time>2021-01-31T07:31:09Z</time>
      </trkpt>
      <trkpt lat="46.04539917781949" lon="8.801503926515579">
        <ele>1022.8</ele>
        <time>2021-01-31T07:31:25Z</time>
      </trkpt>
      <trkpt lat="46.045472687110305" lon="8.801595456898212">
        <ele>1024.72</ele>
        <time>2021-01-31T07:31:40Z</time>
      </trkpt>
      <trkpt lat="46.045485008507967" lon="8.801660416647792">
        <ele>1026.1900000000001</ele>
        <time>2021-01-31T07:31:55Z</time>
      </trkpt>
      <trkpt lat="46.045525828376412" lon="8.801758736371994">
        <ele>1028.01</ele>
        <time>2021-01-31T07:32:13Z</time>
      </trkpt>
      <trkpt lat="46.045501101762056" lon="8.801848674193025">
        <ele>1029.6700000000001</ele>
        <time>2021-01-31T07:32:29Z</time>
      </trkpt>
      <trkpt lat="46.04547930881381" lon="8.801864515990019">
        <ele>1030.8199999999999</ele>
        <time>2021-01-31T07:32:44Z</time>
      </trkpt>
      <trkpt lat="46.045437902212143" lon="8.80182696506381">
        <ele>1030.8099999999999</ele>
        <time>2021-01-31T07:32:55Z</time>
      </trkpt>
      <trkpt lat="46.045378558337688" lon="8.801864935085177">
        <ele>1032.5599999999999</ele>
        <time>2021-01-31T07:33:11Z</time>
      </trkpt>
      <trkpt lat="46.045388281345367" lon="8.801909442991018">
        <ele>1033.9100000000001</ele>
        <time>2021-01-31T07:33:24Z</time>
      </trkpt>
      <trkpt lat="46.045391131192446" lon="8.80198965780437">
        <ele>1035.71</ele>
        <time>2021-01-31T07:33:41Z</time>
      </trkpt>
      <trkpt lat="46.045389035716653" lon="8.80204782821238">
        <ele>1037.9400000000001</ele>
        <time>2021-01-31T07:33:56Z</time>
      </trkpt>
      <trkpt lat="46.045362465083599" lon="8.802088480442762">
        <ele>1038.49</ele>
        <time>2021-01-31T07:34:09Z</time>
      </trkpt>
      <trkpt lat="46.045318376272917" lon="8.802075069397688">
        <ele>1039.6300000000001</ele>
        <time>2021-01-31T07:34:24Z</time>
      </trkpt>
      <trkpt lat="46.04529457166791" lon="8.802097532898188">
        <ele>1040.74</ele>
        <time>2021-01-31T07:34:40Z</time>
      </trkpt>
      <trkpt lat="46.04528677649796" lon="8.802128210663796">
        <ele>1040.27</ele>
        <time>2021-01-31T07:34:57Z</time>
      </trkpt>
      <trkpt lat="46.045290715992451" lon="8.802086133509874">
        <ele>1039.6400000000001</ele>
        <time>2021-01-31T07:35:14Z</time>
      </trkpt>
      <trkpt lat="46.045315694063902" lon="8.801982868462801">
        <ele>1039.5699999999999</ele>
        <time>2021-01-31T07:35:38Z</time>
      </trkpt>
      <trkpt lat="46.04528384283185" lon="8.801960740238428">
        <ele>1039.3599999999999</ele>
        <time>2021-01-31T07:36:02Z</time>
      </trkpt>
      <trkpt lat="46.045330362394452" lon="8.802012708038092">
        <ele>1039.1300000000001</ele>
        <time>2021-01-31T07:36:26Z</time>
      </trkpt>
      <trkpt lat="46.04531167075038" lon="8.802016815170646">
        <ele>1038.77</ele>
        <time>2021-01-31T07:36:47Z</time>
      </trkpt>
      <trkpt lat="46.045255344361067" lon="8.801976330578327">
        <ele>1038.4400000000001</ele>
        <time>2021-01-31T07:37:09Z</time>
      </trkpt>
      <trkpt lat="46.045271856710315" lon="8.802027124911547">
        <ele>1039.55</ele>
        <time>2021-01-31T07:37:27Z</time>
      </trkpt>
      <trkpt lat="46.045281579717994" lon="8.802044810727239">
        <ele>1038.3099999999999</ele>
        <time>2021-01-31T07:37:38Z</time>
      </trkpt>
      <trkpt lat="46.045314855873585" lon="8.80206442438066">
        <ele>1039.3</ele>
        <time>2021-01-31T07:37:52Z</time>
      </trkpt>
      <trkpt lat="46.045299433171749" lon="8.80212695337832">
        <ele>1038.9200000000001</ele>
        <time>2021-01-31T07:38:09Z</time>
      </trkpt>
      <trkpt lat="46.045214356854558" lon="8.802132066339254">
        <ele>1041.3800000000001</ele>
        <time>2021-01-31T07:38:25Z</time>
      </trkpt>
      <trkpt lat="46.045132298022509" lon="8.802138436585665">
        <ele>1043.24</ele>
        <time>2021-01-31T07:38:39Z</time>
      </trkpt>
      <trkpt lat="46.045123413205147" lon="8.802200127393007">
        <ele>1045.73</ele>
        <time>2021-01-31T07:38:52Z</time>
      </trkpt>
      <trkpt lat="46.045120060443878" lon="8.802302135154605">
        <ele>1048.97</ele>
        <time>2021-01-31T07:39:09Z</time>
      </trkpt>
      <trkpt lat="46.045072870329022" lon="8.802345721051097">
        <ele>1051.3800000000001</ele>
        <time>2021-01-31T07:39:28Z</time>
      </trkpt>
      <trkpt lat="46.04508544318378" lon="8.802420487627387">
        <ele>1053.74</ele>
        <time>2021-01-31T07:39:44Z</time>
      </trkpt>
      <trkpt lat="46.045058788731694" lon="8.802501792088151">
        <ele>1056.52</ele>
        <time>2021-01-31T07:40:03Z</time>
      </trkpt>
      <trkpt lat="46.045058704912663" lon="8.802587706595659">
        <ele>1058.3099999999999</ele>
        <time>2021-01-31T07:40:18Z</time>
      </trkpt>
      <trkpt lat="46.045026434585452" lon="8.802683679386973">
        <ele>1060.7</ele>
        <time>2021-01-31T07:40:35Z</time>
      </trkpt>
      <trkpt lat="46.045000534504652" lon="8.802786441519857">
        <ele>1062.54</ele>
        <time>2021-01-31T07:40:51Z</time>
      </trkpt>
      <trkpt lat="46.044992906972766" lon="8.802791889756918">
        <ele>1061.6500000000001</ele>
        <time>2021-01-31T07:41:04Z</time>
      </trkpt>
      <trkpt lat="46.04496918618679" lon="8.802764480933547">
        <ele>1061.1600000000001</ele>
        <time>2021-01-31T07:41:24Z</time>
      </trkpt>
      <trkpt lat="46.044968767091632" lon="8.802734222263098">
        <ele>1062.5799999999999</ele>
        <time>2021-01-31T07:41:40Z</time>
      </trkpt>
      <trkpt lat="46.04498871602118" lon="8.802781915292144">
        <ele>1062.48</ele>
        <time>2021-01-31T07:42:00Z</time>
      </trkpt>
      <trkpt lat="46.044988799840212" lon="8.802857184782624">
        <ele>1063.8099999999999</ele>
        <time>2021-01-31T07:42:13Z</time>
      </trkpt>
      <trkpt lat="46.044931970536709" lon="8.802969921380281">
        <ele>1066.5899999999999</ele>
        <time>2021-01-31T07:42:28Z</time>
      </trkpt>
      <trkpt lat="46.044894335791469" lon="8.803090704604983">
        <ele>1069.6900000000001</ele>
        <time>2021-01-31T07:42:41Z</time>
      </trkpt>
      <trkpt lat="46.044850666075945" lon="8.803223222494125">
        <ele>1072.8599999999999</ele>
        <time>2021-01-31T07:42:58Z</time>
      </trkpt>
      <trkpt lat="46.044793669134378" lon="8.80330259911716">
        <ele>1074.5999999999999</ele>
        <time>2021-01-31T07:43:10Z</time>
      </trkpt>
      <trkpt lat="46.044715382158756" lon="8.803462525829673">
        <ele>1076.25</ele>
        <time>2021-01-31T07:43:28Z</time>
      </trkpt>
      <trkpt lat="46.044686548411846" lon="8.803594289347529">
        <ele>1077.26</ele>
        <time>2021-01-31T07:43:41Z</time>
      </trkpt>
      <trkpt lat="46.044657547026873" lon="8.803696129471064">
        <ele>1078.1400000000001</ele>
        <time>2021-01-31T07:43:49Z</time>
      </trkpt>
      <trkpt lat="46.04461052455008" lon="8.803839376196265">
        <ele>1078.7</ele>
        <time>2021-01-31T07:44:01Z</time>
      </trkpt>
      <trkpt lat="46.044568112120032" lon="8.803949011489749">
        <ele>1079.78</ele>
        <time>2021-01-31T07:44:11Z</time>
      </trkpt>
      <trkpt lat="46.044550593942404" lon="8.804085552692413">
        <ele>1080.02</ele>
        <time>2021-01-31T07:44:22Z</time>
      </trkpt>
      <trkpt lat="46.044557048007846" lon="8.804259561002255">
        <ele>1078.9400000000001</ele>
        <time>2021-01-31T07:44:35Z</time>
      </trkpt>
      <trkpt lat="46.044550845399499" lon="8.804417308419943">
        <ele>1077.8900000000001</ele>
        <time>2021-01-31T07:44:46Z</time>
      </trkpt>
      <trkpt lat="46.044548247009516" lon="8.804495595395565">
        <ele>1077.9200000000001</ele>
        <time>2021-01-31T07:44:51Z</time>
      </trkpt>
      <trkpt lat="46.044532153755426" lon="8.804671112447977">
        <ele>1077.8199999999999</ele>
        <time>2021-01-31T07:45:02Z</time>
      </trkpt>
      <trkpt lat="46.044510779902339" lon="8.804859956726432">
        <ele>1078.4300000000001</ele>
        <time>2021-01-31T07:45:15Z</time>
      </trkpt>
      <trkpt lat="46.04452645406127" lon="8.805062798783183">
        <ele>1081.47</ele>
        <time>2021-01-31T07:45:30Z</time>
      </trkpt>
      <trkpt lat="46.044533830136061" lon="8.805246027186513">
        <ele>1084.27</ele>
        <time>2021-01-31T07:45:46Z</time>
      </trkpt>
      <trkpt lat="46.044522430747747" lon="8.805395225062966">
        <ele>1086.1500000000001</ele>
        <time>2021-01-31T07:46:00Z</time>
      </trkpt>
      <trkpt lat="46.044482365250587" lon="8.805559929460287">
        <ele>1086.4200000000001</ele>
        <time>2021-01-31T07:46:12Z</time>
      </trkpt>
      <trkpt lat="46.044437102973461" lon="8.805687418207526">
        <ele>1088.53</ele>
        <time>2021-01-31T07:46:26Z</time>
      </trkpt>
      <trkpt lat="46.044412041082978" lon="8.805818008258939">
        <ele>1090.6400000000001</ele>
        <time>2021-01-31T07:46:42Z</time>
      </trkpt>
      <trkpt lat="46.04441505856812" lon="8.805950693786144">
        <ele>1092.51</ele>
        <time>2021-01-31T07:46:58Z</time>
      </trkpt>
      <trkpt lat="46.044410113245249" lon="8.806133419275284">
        <ele>1093.8800000000001</ele>
        <time>2021-01-31T07:47:15Z</time>
      </trkpt>
      <trkpt lat="46.044418998062611" lon="8.806311199441552">
        <ele>1095.21</ele>
        <time>2021-01-31T07:47:30Z</time>
      </trkpt>
      <trkpt lat="46.044427631422877" lon="8.806477747857571">
        <ele>1096.6900000000001</ele>
        <time>2021-01-31T07:47:45Z</time>
      </trkpt>
      <trkpt lat="46.044355211779475" lon="8.806584617123008">
        <ele>1099.1700000000001</ele>
        <time>2021-01-31T07:48:01Z</time>
      </trkpt>
      <trkpt lat="46.04423082433641" lon="8.806696850806475">
        <ele>1102.26</ele>
        <time>2021-01-31T07:48:19Z</time>
      </trkpt>
      <trkpt lat="46.04421079158783" lon="8.806744460016489">
        <ele>1104.5699999999999</ele>
        <time>2021-01-31T07:48:32Z</time>
      </trkpt>
      <trkpt lat="46.044142730534077" lon="8.806702885776758">
        <ele>1105.54</ele>
        <time>2021-01-31T07:48:49Z</time>
      </trkpt>
      <trkpt lat="46.044137198477983" lon="8.806773126125336">
        <ele>1107.54</ele>
        <time>2021-01-31T07:49:01Z</time>
      </trkpt>
      <trkpt lat="46.044180784374475" lon="8.806845797225833">
        <ele>1109.5999999999999</ele>
        <time>2021-01-31T07:49:16Z</time>
      </trkpt>
      <trkpt lat="46.044227723032236" lon="8.80691603757441">
        <ele>1111.6199999999999</ele>
        <time>2021-01-31T07:49:28Z</time>
      </trkpt>
      <trkpt lat="46.044277176260948" lon="8.807012094184756">
        <ele>1113.9400000000001</ele>
        <time>2021-01-31T07:49:44Z</time>
      </trkpt>
      <trkpt lat="46.04431732557714" lon="8.807094153016806">
        <ele>1115.8900000000001</ele>
        <time>2021-01-31T07:49:59Z</time>
      </trkpt>
      <trkpt lat="46.044305171817541" lon="8.807154586538672">
        <ele>1117.8599999999999</ele>
        <time>2021-01-31T07:50:12Z</time>
      </trkpt>
      <trkpt lat="46.044248007237911" lon="8.807257683947682">
        <ele>1120.0599999999999</ele>
        <time>2021-01-31T07:50:28Z</time>
      </trkpt>
      <trkpt lat="46.044247336685658" lon="8.807302275672555">
        <ele>1121.3599999999999</ele>
        <time>2021-01-31T07:50:39Z</time>
      </trkpt>
      <trkpt lat="46.04422889649868" lon="8.8073621224612">
        <ele>1122.5899999999999</ele>
        <time>2021-01-31T07:50:50Z</time>
      </trkpt>
      <trkpt lat="46.044221352785826" lon="8.807440828531981">
        <ele>1123.98</ele>
        <time>2021-01-31T07:51:03Z</time>
      </trkpt>
      <trkpt lat="46.044223280623555" lon="8.807544261217117">
        <ele>1125.9100000000001</ele>
        <time>2021-01-31T07:51:18Z</time>
      </trkpt>
      <trkpt lat="46.044235099107027" lon="8.807626571506262">
        <ele>1127.1199999999999</ele>
        <time>2021-01-31T07:51:30Z</time>
      </trkpt>
      <trkpt lat="46.04424063116312" lon="8.807709887623787">
        <ele>1128.9100000000001</ele>
        <time>2021-01-31T07:51:44Z</time>
      </trkpt>
      <trkpt lat="46.044248677790165" lon="8.807809129357338">
        <ele>1130.5699999999999</ele>
        <time>2021-01-31T07:51:59Z</time>
      </trkpt>
      <trkpt lat="46.04426359757781" lon="8.807921363040805">
        <ele>1132.53</ele>
        <time>2021-01-31T07:52:15Z</time>
      </trkpt>
      <trkpt lat="46.044269632548094" lon="8.807998979464173">
        <ele>1134.53</ele>
        <time>2021-01-31T07:52:27Z</time>
      </trkpt>
      <trkpt lat="46.044266866520047" lon="8.808072740212083">
        <ele>1135.3499999999999</ele>
        <time>2021-01-31T07:52:39Z</time>
      </trkpt>
      <trkpt lat="46.044276589527726" lon="8.808164522051811">
        <ele>1137.27</ele>
        <time>2021-01-31T07:52:52Z</time>
      </trkpt>
      <trkpt lat="46.044301819056273" lon="8.808229146525264">
        <ele>1138.54</ele>
        <time>2021-01-31T07:53:02Z</time>
      </trkpt>
      <trkpt lat="46.044347751885653" lon="8.808359485119581">
        <ele>1140.5699999999999</ele>
        <time>2021-01-31T07:53:18Z</time>
      </trkpt>
      <trkpt lat="46.044376585632563" lon="8.808491080999374">
        <ele>1142.77</ele>
        <time>2021-01-31T07:53:33Z</time>
      </trkpt>
      <trkpt lat="46.044376669451594" lon="8.808599375188351">
        <ele>1144.71</ele>
        <time>2021-01-31T07:53:47Z</time>
      </trkpt>
      <trkpt lat="46.044367030262947" lon="8.808706998825073">
        <ele>1147.02</ele>
        <time>2021-01-31T07:54:00Z</time>
      </trkpt>
      <trkpt lat="46.044362587854266" lon="8.808801295235753">
        <ele>1148.6600000000001</ele>
        <time>2021-01-31T07:54:12Z</time>
      </trkpt>
      <trkpt lat="46.044359402731061" lon="8.80889936350286">
        <ele>1149.55</ele>
        <time>2021-01-31T07:54:22Z</time>
      </trkpt>
      <trkpt lat="46.0443608276546" lon="8.809002796187997">
        <ele>1150.4100000000001</ele>
        <time>2021-01-31T07:54:34Z</time>
      </trkpt>
      <trkpt lat="46.044377507641912" lon="8.809083765372634">
        <ele>1151.51</ele>
        <time>2021-01-31T07:54:45Z</time>
      </trkpt>
      <trkpt lat="46.044375915080309" lon="8.809112096205354">
        <ele>1151.6199999999999</ele>
        <time>2021-01-31T07:54:56Z</time>
      </trkpt>
      <trkpt lat="46.044365856796503" lon="8.809234220534563">
        <ele>1152.8800000000001</ele>
        <time>2021-01-31T07:55:08Z</time>
      </trkpt>
      <trkpt lat="46.04435688816011" lon="8.809294989332557">
        <ele>1153.98</ele>
        <time>2021-01-31T07:55:18Z</time>
      </trkpt>
      <trkpt lat="46.044350601732731" lon="8.809286942705512">
        <ele>1153.51</ele>
        <time>2021-01-31T07:55:37Z</time>
      </trkpt>
      <trkpt lat="46.044342052191496" lon="8.809292558580637">
        <ele>1154.1400000000001</ele>
        <time>2021-01-31T07:55:58Z</time>
      </trkpt>
      <trkpt lat="46.044328305870295" lon="8.809423064813018">
        <ele>1155.98</ele>
        <time>2021-01-31T07:56:11Z</time>
      </trkpt>
      <trkpt lat="46.044299136847258" lon="8.809563377872109">
        <ele>1157.51</ele>
        <time>2021-01-31T07:56:26Z</time>
      </trkpt>
      <trkpt lat="46.044287318363786" lon="8.809701595455408">
        <ele>1159.01</ele>
        <time>2021-01-31T07:56:40Z</time>
      </trkpt>
      <trkpt lat="46.044272314757109" lon="8.809828832745552">
        <ele>1159.48</ele>
        <time>2021-01-31T07:56:52Z</time>
      </trkpt>
      <trkpt lat="46.044243648648262" lon="8.809981048107147">
        <ele>1161.3099999999999</ele>
        <time>2021-01-31T07:57:07Z</time>
      </trkpt>
      <trkpt lat="46.044225543737411" lon="8.810099316760898">
        <ele>1162.51</ele>
        <time>2021-01-31T07:57:19Z</time>
      </trkpt>
      <trkpt lat="46.044186064973474" lon="8.810245580971241">
        <ele>1163.6600000000001</ele>
        <time>2021-01-31T07:57:34Z</time>
      </trkpt>
      <trkpt lat="46.044159242883325" lon="8.810366950929165">
        <ele>1165.9300000000001</ele>
        <time>2021-01-31T07:57:49Z</time>
      </trkpt>
      <trkpt lat="46.044160164892673" lon="8.810494020581245">
        <ele>1165.8299999999999</ele>
        <time>2021-01-31T07:58:03Z</time>
      </trkpt>
      <trkpt lat="46.044172151014209" lon="8.810612540692091">
        <ele>1166.98</ele>
        <time>2021-01-31T07:58:13Z</time>
      </trkpt>
      <trkpt lat="46.044171983376145" lon="8.810761235654354">
        <ele>1168.1700000000001</ele>
        <time>2021-01-31T07:58:24Z</time>
      </trkpt>
      <trkpt lat="46.044175503775477" lon="8.810868440195918">
        <ele>1169.01</ele>
        <time>2021-01-31T07:58:35Z</time>
      </trkpt>
      <trkpt lat="46.044214144349098" lon="8.811002466827631">
        <ele>1169.95</ele>
        <time>2021-01-31T07:58:50Z</time>
      </trkpt>
      <trkpt lat="46.044207271188498" lon="8.811134314164519">
        <ele>1171.29</ele>
        <time>2021-01-31T07:59:06Z</time>
      </trkpt>
      <trkpt lat="46.044208109378815" lon="8.811191227287054">
        <ele>1171.3099999999999</ele>
        <time>2021-01-31T07:59:19Z</time>
      </trkpt>
      <trkpt lat="46.044177180156112" lon="8.811221234500408">
        <ele>1171.8099999999999</ele>
        <time>2021-01-31T07:59:33Z</time>
      </trkpt>
      <trkpt lat="46.044124290347099" lon="8.811282003298402">
        <ele>1173.0999999999999</ele>
        <time>2021-01-31T07:59:50Z</time>
      </trkpt>
      <trkpt lat="46.044072741642594" lon="8.811377724632621">
        <ele>1175.28</ele>
        <time>2021-01-31T08:00:07Z</time>
      </trkpt>
      <trkpt lat="46.04401146993041" lon="8.811493059620261">
        <ele>1176.76</ele>
        <time>2021-01-31T08:00:22Z</time>
      </trkpt>
      <trkpt lat="46.043988419696689" lon="8.811557181179524">
        <ele>1178.0599999999999</ele>
        <time>2021-01-31T08:00:39Z</time>
      </trkpt>
      <trkpt lat="46.043935446068645" lon="8.811592804268003">
        <ele>1181.01</ele>
        <time>2021-01-31T08:00:55Z</time>
      </trkpt>
      <trkpt lat="46.043882975354791" lon="8.811649968847632">
        <ele>1182.8299999999999</ele>
        <time>2021-01-31T08:01:12Z</time>
      </trkpt>
      <trkpt lat="46.043883059173822" lon="8.811757927760482">
        <ele>1183.45</ele>
        <time>2021-01-31T08:01:28Z</time>
      </trkpt>
      <trkpt lat="46.043866295367479" lon="8.811821294948459">
        <ele>1184.3699999999999</ele>
        <time>2021-01-31T08:01:40Z</time>
      </trkpt>
      <trkpt lat="46.043799826875329" lon="8.811890948563814">
        <ele>1185.9000000000001</ele>
        <time>2021-01-31T08:01:52Z</time>
      </trkpt>
      <trkpt lat="46.043784823268652" lon="8.81198457442224">
        <ele>1188.48</ele>
        <time>2021-01-31T08:02:10Z</time>
      </trkpt>
      <trkpt lat="46.043716510757804" lon="8.811968816444278">
        <ele>1190.24</ele>
        <time>2021-01-31T08:02:27Z</time>
      </trkpt>
      <trkpt lat="46.043607881292701" lon="8.81195473484695">
        <ele>1192.6800000000001</ele>
        <time>2021-01-31T08:02:44Z</time>
      </trkpt>
      <trkpt lat="46.043541077524424" lon="8.811965547502041">
        <ele>1194.8199999999999</ele>
        <time>2021-01-31T08:02:59Z</time>
      </trkpt>
      <trkpt lat="46.04346077889204" lon="8.811990777030587">
        <ele>1196.8499999999999</ele>
        <time>2021-01-31T08:03:18Z</time>
      </trkpt>
      <trkpt lat="46.043416354805231" lon="8.812073087319732">
        <ele>1199.1600000000001</ele>
        <time>2021-01-31T08:03:34Z</time>
      </trkpt>
      <trkpt lat="46.04337084107101" lon="8.812185488641262">
        <ele>1201.2</ele>
        <time>2021-01-31T08:03:50Z</time>
      </trkpt>
      <trkpt lat="46.043336475268006" lon="8.812298225238919">
        <ele>1203.77</ele>
        <time>2021-01-31T08:04:07Z</time>
      </trkpt>
      <trkpt lat="46.043301690369844" lon="8.812391515821219">
        <ele>1205.6400000000001</ele>
        <time>2021-01-31T08:04:21Z</time>
      </trkpt>
      <trkpt lat="46.043266654014587" lon="8.812451781705022">
        <ele>1208.1700000000001</ele>
        <time>2021-01-31T08:04:37Z</time>
      </trkpt>
      <trkpt lat="46.043225415050983" lon="8.81259486079216">
        <ele>1211.3399999999999</ele>
        <time>2021-01-31T08:04:53Z</time>
      </trkpt>
      <trkpt lat="46.04317294433713" lon="8.812710531055927">
        <ele>1212.9100000000001</ele>
        <time>2021-01-31T08:05:08Z</time>
      </trkpt>
      <trkpt lat="46.043102787807584" lon="8.812808850780129">
        <ele>1215.03</ele>
        <time>2021-01-31T08:05:25Z</time>
      </trkpt>
      <trkpt lat="46.043066745623946" lon="8.812946565449238">
        <ele>1217.26</ele>
        <time>2021-01-31T08:05:43Z</time>
      </trkpt>
      <trkpt lat="46.042957026511431" lon="8.813039436936379">
        <ele>1219.1800000000001</ele>
        <time>2021-01-31T08:05:59Z</time>
      </trkpt>
      <trkpt lat="46.042863316833973" lon="8.813180672004819">
        <ele>1221.0699999999999</ele>
        <time>2021-01-31T08:06:13Z</time>
      </trkpt>
      <trkpt lat="46.04280112311244" lon="8.813272370025516">
        <ele>1223.02</ele>
        <time>2021-01-31T08:06:28Z</time>
      </trkpt>
      <trkpt lat="46.042768768966198" lon="8.813393404707313">
        <ele>1225.3399999999999</ele>
        <time>2021-01-31T08:06:47Z</time>
      </trkpt>
      <trkpt lat="46.042739935219288" lon="8.81344118155539">
        <ele>1226.5</ele>
        <time>2021-01-31T08:06:59Z</time>
      </trkpt>
      <trkpt lat="46.042689643800259" lon="8.813505135476589">
        <ele>1228.27</ele>
        <time>2021-01-31T08:07:14Z</time>
      </trkpt>
      <trkpt lat="46.042576991021633" lon="8.813589876517654">
        <ele>1230.6600000000001</ele>
        <time>2021-01-31T08:07:33Z</time>
      </trkpt>
      <trkpt lat="46.042498871684074" lon="8.813731446862221">
        <ele>1232.5699999999999</ele>
        <time>2021-01-31T08:07:51Z</time>
      </trkpt>
      <trkpt lat="46.042452268302441" lon="8.813799675554037">
        <ele>1234.71</ele>
        <time>2021-01-31T08:08:05Z</time>
      </trkpt>
      <trkpt lat="46.042446820065379" lon="8.813809230923653">
        <ele>1234.8199999999999</ele>
        <time>2021-01-31T08:08:06Z</time>
      </trkpt>
      <trkpt lat="46.042412202805281" lon="8.814012240618467">
        <ele>1236.75</ele>
        <time>2021-01-31T08:08:22Z</time>
      </trkpt>
      <trkpt lat="46.042355541139841" lon="8.814128413796425">
        <ele>1239.4100000000001</ele>
        <time>2021-01-31T08:08:40Z</time>
      </trkpt>
      <trkpt lat="46.042327377945185" lon="8.814264116808772">
        <ele>1241.51</ele>
        <time>2021-01-31T08:08:55Z</time>
      </trkpt>
      <trkpt lat="46.042260322719812" lon="8.814405938610435">
        <ele>1242.9400000000001</ele>
        <time>2021-01-31T08:09:09Z</time>
      </trkpt>
      <trkpt lat="46.042238026857376" lon="8.814532924443483">
        <ele>1244.8699999999999</ele>
        <time>2021-01-31T08:09:24Z</time>
      </trkpt>
      <trkpt lat="46.042201817035675" lon="8.814660916104913">
        <ele>1246.7</ele>
        <time>2021-01-31T08:09:39Z</time>
      </trkpt>
      <trkpt lat="46.042173653841019" lon="8.8147858902812">
        <ele>1248.3699999999999</ele>
        <time>2021-01-31T08:09:54Z</time>
      </trkpt>
      <trkpt lat="46.042103748768568" lon="8.814918408170342">
        <ele>1250.45</ele>
        <time>2021-01-31T08:10:11Z</time>
      </trkpt>
      <trkpt lat="46.042041135951877" lon="8.81503407843411">
        <ele>1251.98</ele>
        <time>2021-01-31T08:10:26Z</time>
      </trkpt>
      <trkpt lat="46.042002243921161" lon="8.815175564959645">
        <ele>1254.74</ele>
        <time>2021-01-31T08:10:45Z</time>
      </trkpt>
      <trkpt lat="46.041956814005971" lon="8.815296851098537">
        <ele>1256.99</ele>
        <time>2021-01-31T08:11:00Z</time>
      </trkpt>
      <trkpt lat="46.041882382705808" lon="8.815447641536593">
        <ele>1257.9300000000001</ele>
        <time>2021-01-31T08:11:16Z</time>
      </trkpt>
      <trkpt lat="46.041790433228016" lon="8.815577896311879">
        <ele>1259.49</ele>
        <time>2021-01-31T08:11:34Z</time>
      </trkpt>
      <trkpt lat="46.041721869260073" lon="8.815764309838414">
        <ele>1260.9000000000001</ele>
        <time>2021-01-31T08:11:51Z</time>
      </trkpt>
      <trkpt lat="46.041696639731526" lon="8.815959692001343">
        <ele>1260.96</ele>
        <time>2021-01-31T08:12:07Z</time>
      </trkpt>
      <trkpt lat="46.04167778044939" lon="8.816009983420372">
        <ele>1261.0599999999999</ele>
        <time>2021-01-31T08:12:20Z</time>
      </trkpt>
      <trkpt lat="46.04165724478662" lon="8.816174855455756">
        <ele>1261.3900000000001</ele>
        <time>2021-01-31T08:12:32Z</time>
      </trkpt>
      <trkpt lat="46.041629584506154" lon="8.816337632015348">
        <ele>1261.98</ele>
        <time>2021-01-31T08:12:45Z</time>
      </trkpt>
      <trkpt lat="46.041569570079446" lon="8.816469311714172">
        <ele>1262.6500000000001</ele>
        <time>2021-01-31T08:13:00Z</time>
      </trkpt>
      <trkpt lat="46.041455240920186" lon="8.816606774926186">
        <ele>1265.05</ele>
        <time>2021-01-31T08:13:18Z</time>
      </trkpt>
      <trkpt lat="46.0413767863065" lon="8.816678188741207">
        <ele>1266.95</ele>
        <time>2021-01-31T08:13:33Z</time>
      </trkpt>
      <trkpt lat="46.041273688897491" lon="8.81681221537292">
        <ele>1269.3199999999999</ele>
        <time>2021-01-31T08:13:51Z</time>
      </trkpt>
      <trkpt lat="46.041179224848747" lon="8.816887568682432">
        <ele>1270.6199999999999</ele>
        <time>2021-01-31T08:14:05Z</time>
      </trkpt>
      <trkpt lat="46.041142009198666" lon="8.817035173997283">
        <ele>1271.8599999999999</ele>
        <time>2021-01-31T08:14:19Z</time>
      </trkpt>
      <trkpt lat="46.041130442172289" lon="8.817200046032667">
        <ele>1274.0899999999999</ele>
        <time>2021-01-31T08:14:37Z</time>
      </trkpt>
      <trkpt lat="46.041111079975963" lon="8.817283697426319">
        <ele>1276.3900000000001</ele>
        <time>2021-01-31T08:14:53Z</time>
      </trkpt>
      <trkpt lat="46.041041761636734" lon="8.817376820370555">
        <ele>1277.6900000000001</ele>
        <time>2021-01-31T08:15:08Z</time>
      </trkpt>
      <trkpt lat="46.04097998701036" lon="8.817429710179567">
        <ele>1279.3299999999999</ele>
        <time>2021-01-31T08:15:21Z</time>
      </trkpt>
      <trkpt lat="46.0409692581743" lon="8.81742887198925">
        <ele>1279.6500000000001</ele>
        <time>2021-01-31T08:15:23Z</time>
      </trkpt>
      <trkpt lat="46.040913686156273" lon="8.817572621628642">
        <ele>1281.49</ele>
        <time>2021-01-31T08:15:39Z</time>
      </trkpt>
      <trkpt lat="46.040848139673471" lon="8.817691309377551">
        <ele>1283.52</ele>
        <time>2021-01-31T08:15:56Z</time>
      </trkpt>
      <trkpt lat="46.040800279006362" lon="8.817855846136808">
        <ele>1285.23</ele>
        <time>2021-01-31T08:16:12Z</time>
      </trkpt>
      <trkpt lat="46.04076842777431" lon="8.818000685423613">
        <ele>1287.1800000000001</ele>
        <time>2021-01-31T08:16:26Z</time>
      </trkpt>
      <trkpt lat="46.040750993415713" lon="8.81812172010541">
        <ele>1288.49</ele>
        <time>2021-01-31T08:16:39Z</time>
      </trkpt>
      <trkpt lat="46.040757615119219" lon="8.81828642450273">
        <ele>1290.98</ele>
        <time>2021-01-31T08:16:57Z</time>
      </trkpt>
      <trkpt lat="46.040720231831074" lon="8.818430006504059">
        <ele>1293.1900000000001</ele>
        <time>2021-01-31T08:17:13Z</time>
      </trkpt>
      <trkpt lat="46.040671365335584" lon="8.818562608212233">
        <ele>1294.9400000000001</ele>
        <time>2021-01-31T08:17:28Z</time>
      </trkpt>
      <trkpt lat="46.040646554902196" lon="8.818696718662977">
        <ele>1296.1500000000001</ele>
        <time>2021-01-31T08:17:43Z</time>
      </trkpt>
      <trkpt lat="46.040646051988006" lon="8.818931998685002">
        <ele>1299.24</ele>
        <time>2021-01-31T08:18:02Z</time>
      </trkpt>
      <trkpt lat="46.040635071694851" lon="8.818981116637588">
        <ele>1299.5599999999999</ele>
        <time>2021-01-31T08:18:06Z</time>
      </trkpt>
      <trkpt lat="46.040545217692852" lon="8.819088907912374">
        <ele>1300.8699999999999</ele>
        <time>2021-01-31T08:18:19Z</time>
      </trkpt>
      <trkpt lat="46.040448490530252" lon="8.819191921502352">
        <ele>1303.3199999999999</ele>
        <time>2021-01-31T08:18:35Z</time>
      </trkpt>
      <trkpt lat="46.040436504408717" lon="8.819343214854598">
        <ele>1305.6400000000001</ele>
        <time>2021-01-31T08:18:49Z</time>
      </trkpt>
      <trkpt lat="46.040394343435764" lon="8.819480929523706">
        <ele>1307.1300000000001</ele>
        <time>2021-01-31T08:19:01Z</time>
      </trkpt>
      <trkpt lat="46.040375232696533" lon="8.819639850407839">
        <ele>1308.98</ele>
        <time>2021-01-31T08:19:17Z</time>
      </trkpt>
      <trkpt lat="46.04035260155797" lon="8.819787371903658">
        <ele>1310.4400000000001</ele>
        <time>2021-01-31T08:19:31Z</time>
      </trkpt>
      <trkpt lat="46.040386380627751" lon="8.819955848157406">
        <ele>1312.8800000000001</ele>
        <time>2021-01-31T08:19:49Z</time>
      </trkpt>
      <trkpt lat="46.040413370355964" lon="8.820107309147716">
        <ele>1314.4300000000001</ele>
        <time>2021-01-31T08:20:03Z</time>
      </trkpt>
      <trkpt lat="46.040322175249457" lon="8.820238821208477">
        <ele>1315.78</ele>
        <time>2021-01-31T08:20:18Z</time>
      </trkpt>
      <trkpt lat="46.040266938507557" lon="8.820348456501961">
        <ele>1318.1800000000001</ele>
        <time>2021-01-31T08:20:35Z</time>
      </trkpt>
      <trkpt lat="46.040210695937276" lon="8.820458510890603">
        <ele>1320.3499999999999</ele>
        <time>2021-01-31T08:20:52Z</time>
      </trkpt>
      <trkpt lat="46.040089074522257" lon="8.82056194357574">
        <ele>1321.96</ele>
        <time>2021-01-31T08:21:07Z</time>
      </trkpt>
      <trkpt lat="46.040067365393043" lon="8.820650624111295">
        <ele>1322.7</ele>
        <time>2021-01-31T08:21:19Z</time>
      </trkpt>
      <trkpt lat="46.040073735639453" lon="8.82066311314702">
        <ele>1322.6099999999999</ele>
        <time>2021-01-31T08:21:33Z</time>
      </trkpt>
      <trkpt lat="46.040022103115916" lon="8.820709884166718">
        <ele>1322.79</ele>
        <time>2021-01-31T08:22:04Z</time>
      </trkpt>
      <trkpt lat="46.039991090074182" lon="8.820714494213462">
        <ele>1322.8</ele>
        <time>2021-01-31T08:22:15Z</time>
      </trkpt>
      <trkpt lat="46.040021684020758" lon="8.820694629102945">
        <ele>1322.99</ele>
        <time>2021-01-31T08:22:27Z</time>
      </trkpt>
      <trkpt lat="46.040082955732942" lon="8.820655317977071">
        <ele>1323.5599999999999</ele>
        <time>2021-01-31T08:22:45Z</time>
      </trkpt>
      <trkpt lat="46.040179012343287" lon="8.820621371269226">
        <ele>1326.5599999999999</ele>
        <time>2021-01-31T08:22:59Z</time>
      </trkpt>
      <trkpt lat="46.040318738669157" lon="8.820569738745689">
        <ele>1329.45</ele>
        <time>2021-01-31T08:23:15Z</time>
      </trkpt>
      <trkpt lat="46.040428541600704" lon="8.820509221404791">
        <ele>1332.5</ele>
        <time>2021-01-31T08:23:31Z</time>
      </trkpt>
      <trkpt lat="46.040526358410716" lon="8.82041534408927">
        <ele>1333.96</ele>
        <time>2021-01-31T08:23:45Z</time>
      </trkpt>
      <trkpt lat="46.040595341473818" lon="8.820300176739693">
        <ele>1335.28</ele>
        <time>2021-01-31T08:23:58Z</time>
      </trkpt>
      <trkpt lat="46.040645632892847" lon="8.820195570588112">
        <ele>1336.8900000000001</ele>
        <time>2021-01-31T08:24:11Z</time>
      </trkpt>
      <trkpt lat="46.040695756673813" lon="8.820100435987115">
        <ele>1338.8199999999999</ele>
        <time>2021-01-31T08:24:24Z</time>
      </trkpt>
      <trkpt lat="46.040698606520891" lon="8.820066573098302">
        <ele>1338.72</ele>
        <time>2021-01-31T08:24:45Z</time>
      </trkpt>
      <trkpt lat="46.040729368105531" lon="8.819988034665585">
        <ele>1340.1700000000001</ele>
        <time>2021-01-31T08:25:02Z</time>
      </trkpt>
      <trkpt lat="46.040811091661453" lon="8.819860462099314">
        <ele>1342.71</ele>
        <time>2021-01-31T08:25:18Z</time>
      </trkpt>
      <trkpt lat="46.040885020047426" lon="8.819733560085297">
        <ele>1343.5</ele>
        <time>2021-01-31T08:25:31Z</time>
      </trkpt>
      <trkpt lat="46.040983088314533" lon="8.819611435756087">
        <ele>1344.6800000000001</ele>
        <time>2021-01-31T08:25:44Z</time>
      </trkpt>
      <trkpt lat="46.041068835183978" lon="8.819508841261268">
        <ele>1346.99</ele>
        <time>2021-01-31T08:25:57Z</time>
      </trkpt>
      <trkpt lat="46.041114097461104" lon="8.81945326924324">
        <ele>1348.1900000000001</ele>
        <time>2021-01-31T08:26:04Z</time>
      </trkpt>
      <trkpt lat="46.041151816025376" lon="8.819400211796165">
        <ele>1348.6900000000001</ele>
        <time>2021-01-31T08:26:09Z</time>
      </trkpt>
      <trkpt lat="46.041263295337558" lon="8.819241626188159">
        <ele>1348.74</ele>
        <time>2021-01-31T08:26:24Z</time>
      </trkpt>
      <trkpt lat="46.041348036378622" lon="8.819106677547097">
        <ele>1349.8800000000001</ele>
        <time>2021-01-31T08:26:38Z</time>
      </trkpt>
      <trkpt lat="46.041411738842726" lon="8.818985726684332">
        <ele>1351.8</ele>
        <time>2021-01-31T08:26:51Z</time>
      </trkpt>
      <trkpt lat="46.041497569531202" lon="8.818871481344104">
        <ele>1354.3399999999999</ele>
        <time>2021-01-31T08:27:07Z</time>
      </trkpt>
      <trkpt lat="46.041569570079446" lon="8.818786991760135">
        <ele>1357.3199999999999</ele>
        <time>2021-01-31T08:27:22Z</time>
      </trkpt>
      <trkpt lat="46.041647102683783" lon="8.818705771118403">
        <ele>1359.3599999999999</ele>
        <time>2021-01-31T08:27:35Z</time>
      </trkpt>
      <trkpt lat="46.041736034676433" lon="8.818604182451963">
        <ele>1360.3499999999999</ele>
        <time>2021-01-31T08:27:48Z</time>
      </trkpt>
      <trkpt lat="46.041822033002973" lon="8.81852095015347">
        <ele>1361.03</ele>
        <time>2021-01-31T08:27:59Z</time>
      </trkpt>
      <trkpt lat="46.041914820671082" lon="8.818466132506728">
        <ele>1362.05</ele>
        <time>2021-01-31T08:28:12Z</time>
      </trkpt>
      <trkpt lat="46.042004842311144" lon="8.818422378972173">
        <ele>1363.99</ele>
        <time>2021-01-31T08:28:25Z</time>
      </trkpt>
      <trkpt lat="46.042132498696446" lon="8.818382732570171">
        <ele>1366.24</ele>
        <time>2021-01-31T08:28:41Z</time>
      </trkpt>
      <trkpt lat="46.042202739045024" lon="8.818390276283026">
        <ele>1368.6099999999999</ele>
        <time>2021-01-31T08:28:55Z</time>
      </trkpt>
      <trkpt lat="46.042265351861715" lon="8.81844911724329">
        <ele>1371.6400000000001</ele>
        <time>2021-01-31T08:29:11Z</time>
      </trkpt>
      <trkpt lat="46.042323438450694" lon="8.818473340943456">
        <ele>1374.6800000000001</ele>
        <time>2021-01-31T08:29:24Z</time>
      </trkpt>
      <trkpt lat="46.042438270524144" lon="8.818536791950464">
        <ele>1377.55</ele>
        <time>2021-01-31T08:29:41Z</time>
      </trkpt>
      <trkpt lat="46.042462913319468" lon="8.818543832749128">
        <ele>1378.25</ele>
        <time>2021-01-31T08:29:44Z</time>
      </trkpt>
      <trkpt lat="46.042567435652018" lon="8.818570990115404">
        <ele>1381.7</ele>
        <time>2021-01-31T08:30:01Z</time>
      </trkpt>
      <trkpt lat="46.042634658515453" lon="8.818661933764815">
        <ele>1384.8199999999999</ele>
        <time>2021-01-31T08:30:20Z</time>
      </trkpt>
      <trkpt lat="46.042663995176554" lon="8.818762600421906">
        <ele>1387.21</ele>
        <time>2021-01-31T08:30:38Z</time>
      </trkpt>
      <trkpt lat="46.042794585227966" lon="8.818857315927744">
        <ele>1389.6900000000001</ele>
        <time>2021-01-31T08:30:54Z</time>
      </trkpt>
      <trkpt lat="46.042824257165194" lon="8.81894800812006">
        <ele>1392</ele>
        <time>2021-01-31T08:31:07Z</time>
      </trkpt>
      <trkpt lat="46.042823670431972" lon="8.819100055843592">
        <ele>1394.6500000000001</ele>
        <time>2021-01-31T08:31:25Z</time>
      </trkpt>
      <trkpt lat="46.042780000716448" lon="8.819192592054606">
        <ele>1397.4200000000001</ele>
        <time>2021-01-31T08:31:40Z</time>
      </trkpt>
      <trkpt lat="46.042755022644997" lon="8.819322595372796">
        <ele>1400.05</ele>
        <time>2021-01-31T08:31:56Z</time>
      </trkpt>
      <trkpt lat="46.042702719569206" lon="8.819423262029886">
        <ele>1402.5799999999999</ele>
        <time>2021-01-31T08:32:12Z</time>
      </trkpt>
      <trkpt lat="46.042646896094084" lon="8.819507919251919">
        <ele>1405.0799999999999</ele>
        <time>2021-01-31T08:32:27Z</time>
      </trkpt>
      <trkpt lat="46.042611273005605" lon="8.819603053852916">
        <ele>1407.95</ele>
        <time>2021-01-31T08:32:45Z</time>
      </trkpt>
      <trkpt lat="46.042557042092085" lon="8.819684777408838">
        <ele>1410.76</ele>
        <time>2021-01-31T08:33:00Z</time>
      </trkpt>
      <trkpt lat="46.042485879734159" lon="8.819800950586796">
        <ele>1412.71</ele>
        <time>2021-01-31T08:33:15Z</time>
      </trkpt>
      <trkpt lat="46.042419411242008" lon="8.819866413250566">
        <ele>1415.0699999999999</ele>
        <time>2021-01-31T08:33:30Z</time>
      </trkpt>
      <trkpt lat="46.042402312159538" lon="8.819974707439542">
        <ele>1417.3699999999999</ele>
        <time>2021-01-31T08:33:44Z</time>
      </trkpt>
      <trkpt lat="46.042357888072729" lon="8.820038996636868">
        <ele>1418.8399999999999</ele>
        <time>2021-01-31T08:33:55Z</time>
      </trkpt>
      <trkpt lat="46.042315224185586" lon="8.82012315094471">
        <ele>1419.3699999999999</ele>
        <time>2021-01-31T08:34:11Z</time>
      </trkpt>
      <trkpt lat="46.042286474257708" lon="8.820137651637197">
        <ele>1419.8599999999999</ele>
        <time>2021-01-31T08:34:22Z</time>
      </trkpt>
      <trkpt lat="46.042262082919478" lon="8.820252735167742">
        <ele>1421.0599999999999</ele>
        <time>2021-01-31T08:34:35Z</time>
      </trkpt>
      <trkpt lat="46.042224615812302" lon="8.820362286642194">
        <ele>1422.6099999999999</ele>
        <time>2021-01-31T08:34:45Z</time>
      </trkpt>
      <trkpt lat="46.04215320199728" lon="8.820539731532335">
        <ele>1424.79</ele>
        <time>2021-01-31T08:35:02Z</time>
      </trkpt>
      <trkpt lat="46.042099138721824" lon="8.820678452029824">
        <ele>1427.26</ele>
        <time>2021-01-31T08:35:17Z</time>
      </trkpt>
      <trkpt lat="46.04206183925271" lon="8.820856902748346">
        <ele>1428.97</ele>
        <time>2021-01-31T08:35:33Z</time>
      </trkpt>
      <trkpt lat="46.042047338560224" lon="8.820933094248176">
        <ele>1429.6700000000001</ele>
        <time>2021-01-31T08:35:43Z</time>
      </trkpt>
      <trkpt lat="46.041997633874416" lon="8.821072736755014">
        <ele>1431.0599999999999</ele>
        <time>2021-01-31T08:35:56Z</time>
      </trkpt>
      <trkpt lat="46.041944995522499" lon="8.821224616840482">
        <ele>1433.1199999999999</ele>
        <time>2021-01-31T08:36:10Z</time>
      </trkpt>
      <trkpt lat="46.041893865913153" lon="8.821414383128285">
        <ele>1435.1700000000001</ele>
        <time>2021-01-31T08:36:27Z</time>
      </trkpt>
      <trkpt lat="46.041862517595291" lon="8.821602473035455">
        <ele>1438.3699999999999</ele>
        <time>2021-01-31T08:36:45Z</time>
      </trkpt>
      <trkpt lat="46.041832426562905" lon="8.821759717538953">
        <ele>1439.4000000000001</ele>
        <time>2021-01-31T08:36:58Z</time>
      </trkpt>
      <trkpt lat="46.041796887293458" lon="8.821957530453801">
        <ele>1439.0799999999999</ele>
        <time>2021-01-31T08:37:13Z</time>
      </trkpt>
      <trkpt lat="46.041775848716497" lon="8.822071356698871">
        <ele>1439.77</ele>
        <time>2021-01-31T08:37:28Z</time>
      </trkpt>
      <trkpt lat="46.041776100173593" lon="8.822077894583345">
        <ele>1439.6800000000001</ele>
        <time>2021-01-31T08:37:32Z</time>
      </trkpt>
      <trkpt lat="46.041770735755563" lon="8.822120558470488">
        <ele>1439.4200000000001</ele>
        <time>2021-01-31T08:37:35Z</time>
      </trkpt>
      <trkpt lat="46.041746763512492" lon="8.822432029992342">
        <ele>1438.0899999999999</ele>
        <time>2021-01-31T08:37:54Z</time>
      </trkpt>
      <trkpt lat="46.041724635288119" lon="8.822687845677137">
        <ele>1438.3499999999999</ele>
        <time>2021-01-31T08:38:10Z</time>
      </trkpt>
      <trkpt lat="46.041700327768922" lon="8.822903512045741">
        <ele>1439.46</ele>
        <time>2021-01-31T08:38:25Z</time>
      </trkpt>
      <trkpt lat="46.041667051613331" lon="8.823072910308838">
        <ele>1441.5899999999999</ele>
        <time>2021-01-31T08:38:39Z</time>
      </trkpt>
      <trkpt lat="46.041644252836704" lon="8.823306933045387">
        <ele>1443.8099999999999</ele>
        <time>2021-01-31T08:38:58Z</time>
      </trkpt>
      <trkpt lat="46.041635954752564" lon="8.823458310216665">
        <ele>1446.3499999999999</ele>
        <time>2021-01-31T08:39:13Z</time>
      </trkpt>
      <trkpt lat="46.041621202602983" lon="8.823669031262398">
        <ele>1447.48</ele>
        <time>2021-01-31T08:39:31Z</time>
      </trkpt>
      <trkpt lat="46.041606450453401" lon="8.823857288807631">
        <ele>1448.9100000000001</ele>
        <time>2021-01-31T08:39:47Z</time>
      </trkpt>
      <trkpt lat="46.041620615869761" lon="8.824058119207621">
        <ele>1451.8199999999999</ele>
        <time>2021-01-31T08:40:06Z</time>
      </trkpt>
      <trkpt lat="46.041643917560577" lon="8.824245203286409">
        <ele>1453.3599999999999</ele>
        <time>2021-01-31T08:40:23Z</time>
      </trkpt>
      <trkpt lat="46.041656071320176" lon="8.824443519115448">
        <ele>1455.5</ele>
        <time>2021-01-31T08:40:41Z</time>
      </trkpt>
      <trkpt lat="46.041663279756904" lon="8.824595063924789">
        <ele>1457.47</ele>
        <time>2021-01-31T08:40:55Z</time>
      </trkpt>
      <trkpt lat="46.041647773236036" lon="8.824774939566851">
        <ele>1460.0599999999999</ele>
        <time>2021-01-31T08:41:12Z</time>
      </trkpt>
      <trkpt lat="46.041626064106822" lon="8.824916006997228">
        <ele>1462.48</ele>
        <time>2021-01-31T08:41:27Z</time>
      </trkpt>
      <trkpt lat="46.041613910347223" lon="8.825026983395219">
        <ele>1464.3699999999999</ele>
        <time>2021-01-31T08:41:40Z</time>
      </trkpt>
      <trkpt lat="46.041585747152567" lon="8.825176516547799">
        <ele>1467.29</ele>
        <time>2021-01-31T08:41:59Z</time>
      </trkpt>
      <trkpt lat="46.041570659726858" lon="8.825320517644286">
        <ele>1469.6800000000001</ele>
        <time>2021-01-31T08:42:15Z</time>
      </trkpt>
      <trkpt lat="46.041575940325856" lon="8.825412467122078">
        <ele>1471.04</ele>
        <time>2021-01-31T08:42:25Z</time>
      </trkpt>
      <trkpt lat="46.041551632806659" lon="8.825516737997532">
        <ele>1472.7</ele>
        <time>2021-01-31T08:42:37Z</time>
      </trkpt>
      <trkpt lat="46.041532270610332" lon="8.825676664710045">
        <ele>1473.45</ele>
        <time>2021-01-31T08:42:51Z</time>
      </trkpt>
      <trkpt lat="46.041460772976279" lon="8.825806165114045">
        <ele>1475.3</ele>
        <time>2021-01-31T08:43:05Z</time>
      </trkpt>
      <trkpt lat="46.041427161544561" lon="8.82588311098516">
        <ele>1476.0699999999999</ele>
        <time>2021-01-31T08:43:13Z</time>
      </trkpt>
      <trkpt lat="46.04138508439064" lon="8.82605460472405">
        <ele>1478.6400000000001</ele>
        <time>2021-01-31T08:43:29Z</time>
      </trkpt>
      <trkpt lat="46.04134988039732" lon="8.826196845620871">
        <ele>1480.4100000000001</ele>
        <time>2021-01-31T08:43:42Z</time>
      </trkpt>
      <trkpt lat="46.041305540129542" lon="8.826303044334054">
        <ele>1483.1700000000001</ele>
        <time>2021-01-31T08:43:55Z</time>
      </trkpt>
      <trkpt lat="46.041285842657089" lon="8.82631846703589">
        <ele>1483.23</ele>
        <time>2021-01-31T08:44:07Z</time>
      </trkpt>
      <trkpt lat="46.041260277852416" lon="8.826340679079294">
        <ele>1484.2</ele>
        <time>2021-01-31T08:44:20Z</time>
      </trkpt>
      <trkpt lat="46.041208477690816" lon="8.826404716819525">
        <ele>1486.0799999999999</ele>
        <time>2021-01-31T08:44:32Z</time>
      </trkpt>
      <trkpt lat="46.04119255207479" lon="8.826486272737384">
        <ele>1488.8599999999999</ele>
        <time>2021-01-31T08:44:45Z</time>
      </trkpt>
      <trkpt lat="46.041176626458764" lon="8.826564475893974">
        <ele>1491.4400000000001</ele>
        <time>2021-01-31T08:44:58Z</time>
      </trkpt>
      <trkpt lat="46.04119012132287" lon="8.826656509190798">
        <ele>1493.5599999999999</ele>
        <time>2021-01-31T08:45:11Z</time>
      </trkpt>
      <trkpt lat="46.041182493790984" lon="8.826717026531696">
        <ele>1495.3099999999999</ele>
        <time>2021-01-31T08:45:23Z</time>
      </trkpt>
      <trkpt lat="46.041202861815691" lon="8.826772682368755">
        <ele>1497.0799999999999</ele>
        <time>2021-01-31T08:45:33Z</time>
      </trkpt>
      <trkpt lat="46.041166819632053" lon="8.826831858605146">
        <ele>1499.49</ele>
        <time>2021-01-31T08:45:48Z</time>
      </trkpt>
      <trkpt lat="46.041090209037066" lon="8.826897069811821">
        <ele>1501.26</ele>
        <time>2021-01-31T08:46:03Z</time>
      </trkpt>
      <trkpt lat="46.041080905124545" lon="8.826998742297292">
        <ele>1504.1400000000001</ele>
        <time>2021-01-31T08:46:19Z</time>
      </trkpt>
      <trkpt lat="46.041084676980972" lon="8.8270103931427">
        <ele>1506.02</ele>
        <time>2021-01-31T08:46:26Z</time>
      </trkpt>
      <trkpt lat="46.041136728599668" lon="8.82706512697041">
        <ele>1507.2</ele>
        <time>2021-01-31T08:46:41Z</time>
      </trkpt>
      <trkpt lat="46.041111666709185" lon="8.827138217166066">
        <ele>1509.77</ele>
        <time>2021-01-31T08:46:55Z</time>
      </trkpt>
      <trkpt lat="46.041084844619036" lon="8.827232262119651">
        <ele>1512.0999999999999</ele>
        <time>2021-01-31T08:47:10Z</time>
      </trkpt>
      <trkpt lat="46.041111163794994" lon="8.827278278768063">
        <ele>1514.1400000000001</ele>
        <time>2021-01-31T08:47:23Z</time>
      </trkpt>
      <trkpt lat="46.04112314991653" lon="8.827333683148027">
        <ele>1515.9000000000001</ele>
        <time>2021-01-31T08:47:35Z</time>
      </trkpt>
      <trkpt lat="46.041105715557933" lon="8.827397469431162">
        <ele>1517.8399999999999</ele>
        <time>2021-01-31T08:47:48Z</time>
      </trkpt>
      <trkpt lat="46.041120383888483" lon="8.827428817749023">
        <ele>1519.0599999999999</ele>
        <time>2021-01-31T08:48:04Z</time>
      </trkpt>
      <trkpt lat="46.041140081360936" lon="8.827496627345681">
        <ele>1522.1199999999999</ele>
        <time>2021-01-31T08:48:20Z</time>
      </trkpt>
      <trkpt lat="46.041155168786645" lon="8.827567202970386">
        <ele>1524.5999999999999</ele>
        <time>2021-01-31T08:48:35Z</time>
      </trkpt>
      <trkpt lat="46.041166316717863" lon="8.827632749453187">
        <ele>1526.53</ele>
        <time>2021-01-31T08:48:48Z</time>
      </trkpt>
      <trkpt lat="46.041158773005009" lon="8.827651524916291">
        <ele>1527.01</ele>
        <time>2021-01-31T08:48:58Z</time>
      </trkpt>
      <trkpt lat="46.041096160188317" lon="8.827744144946337">
        <ele>1529.3499999999999</ele>
        <time>2021-01-31T08:49:15Z</time>
      </trkpt>
      <trkpt lat="46.041086185723543" lon="8.827823353931308">
        <ele>1532.73</ele>
        <time>2021-01-31T08:49:30Z</time>
      </trkpt>
      <trkpt lat="46.041070176288486" lon="8.827884960919619">
        <ele>1534.8900000000001</ele>
        <time>2021-01-31T08:49:43Z</time>
      </trkpt>
      <trkpt lat="46.041079061105847" lon="8.827916393056512">
        <ele>1537</ele>
        <time>2021-01-31T08:49:54Z</time>
      </trkpt>
      <trkpt lat="46.041073026135564" lon="8.827974814921618">
        <ele>1538.54</ele>
        <time>2021-01-31T08:50:09Z</time>
      </trkpt>
      <trkpt lat="46.041048550978303" lon="8.828025776892901">
        <ele>1540.21</ele>
        <time>2021-01-31T08:50:22Z</time>
      </trkpt>
      <trkpt lat="46.041053663939238" lon="8.828080343082547">
        <ele>1542.24</ele>
        <time>2021-01-31T08:50:35Z</time>
      </trkpt>
      <trkpt lat="46.041099429130554" lon="8.828123593702912">
        <ele>1544.0799999999999</ele>
        <time>2021-01-31T08:50:48Z</time>
      </trkpt>
      <trkpt lat="46.041116947308183" lon="8.828187128528953">
        <ele>1545.47</ele>
        <time>2021-01-31T08:51:00Z</time>
      </trkpt>
      <trkpt lat="46.041064141318202" lon="8.82824026979506">
        <ele>1548.1500000000001</ele>
        <time>2021-01-31T08:51:15Z</time>
      </trkpt>
      <trkpt lat="46.041020723059773" lon="8.828312270343304">
        <ele>1550.4100000000001</ele>
        <time>2021-01-31T08:51:31Z</time>
      </trkpt>
      <trkpt lat="46.040996247902513" lon="8.828348983079195">
        <ele>1552.6099999999999</ele>
        <time>2021-01-31T08:51:47Z</time>
      </trkpt>
      <trkpt lat="46.041012089699507" lon="8.828401705250144">
        <ele>1554.0799999999999</ele>
        <time>2021-01-31T08:52:00Z</time>
      </trkpt>
      <trkpt lat="46.041001109406352" lon="8.828464988619089">
        <ele>1556.48</ele>
        <time>2021-01-31T08:52:13Z</time>
      </trkpt>
      <trkpt lat="46.040939753875136" lon="8.828507987782359">
        <ele>1558.54</ele>
        <time>2021-01-31T08:52:27Z</time>
      </trkpt>
      <trkpt lat="46.040889546275139" lon="8.828580910339952">
        <ele>1561.27</ele>
        <time>2021-01-31T08:52:42Z</time>
      </trkpt>
      <trkpt lat="46.040843948721886" lon="8.828653749078512">
        <ele>1563.3399999999999</ele>
        <time>2021-01-31T08:52:58Z</time>
      </trkpt>
      <trkpt lat="46.040820395573974" lon="8.828738741576672">
        <ele>1565.1300000000001</ele>
        <time>2021-01-31T08:53:09Z</time>
      </trkpt>
      <trkpt lat="46.04079382494092" lon="8.828815771266818">
        <ele>1566.77</ele>
        <time>2021-01-31T08:53:22Z</time>
      </trkpt>
      <trkpt lat="46.040768511593342" lon="8.828919203951955">
        <ele>1568.5799999999999</ele>
        <time>2021-01-31T08:53:36Z</time>
      </trkpt>
      <trkpt lat="46.04076306335628" lon="8.829012243077159">
        <ele>1570.76</ele>
        <time>2021-01-31T08:53:50Z</time>
      </trkpt>
      <trkpt lat="46.040758034214377" lon="8.829106623306871">
        <ele>1572.5999999999999</ele>
        <time>2021-01-31T08:54:05Z</time>
      </trkpt>
      <trkpt lat="46.040742108598351" lon="8.829206116497517">
        <ele>1574.5699999999999</ele>
        <time>2021-01-31T08:54:18Z</time>
      </trkpt>
      <trkpt lat="46.040733475238085" lon="8.829249199479818">
        <ele>1574.98</ele>
        <time>2021-01-31T08:54:30Z</time>
      </trkpt>
      <trkpt lat="46.040716962888837" lon="8.82931524887681">
        <ele>1576.74</ele>
        <time>2021-01-31T08:54:43Z</time>
      </trkpt>
      <trkpt lat="46.040704306215048" lon="8.829425722360611">
        <ele>1579.1400000000001</ele>
        <time>2021-01-31T08:54:57Z</time>
      </trkpt>
      <trkpt lat="46.040699863806367" lon="8.829540470615029">
        <ele>1580.3699999999999</ele>
        <time>2021-01-31T08:55:11Z</time>
      </trkpt>
      <trkpt lat="46.040687123313546" lon="8.829658906906843">
        <ele>1582.3</ele>
        <time>2021-01-31T08:55:25Z</time>
      </trkpt>
      <trkpt lat="46.04069366119802" lon="8.829792011529207">
        <ele>1584.01</ele>
        <time>2021-01-31T08:55:40Z</time>
      </trkpt>
      <trkpt lat="46.040672454982996" lon="8.82992503233254">
        <ele>1586.47</ele>
        <time>2021-01-31T08:55:55Z</time>
      </trkpt>
      <trkpt lat="46.04062819853425" lon="8.830036260187626">
        <ele>1588.55</ele>
        <time>2021-01-31T08:56:09Z</time>
      </trkpt>
      <trkpt lat="46.040588384494185" lon="8.83014002814889">
        <ele>1590.5999999999999</ele>
        <time>2021-01-31T08:56:23Z</time>
      </trkpt>
      <trkpt lat="46.040544211864471" lon="8.830249328166246">
        <ele>1592.3199999999999</ele>
        <time>2021-01-31T08:56:37Z</time>
      </trkpt>
      <trkpt lat="46.040492244064808" lon="8.830325184389949">
        <ele>1593.8</ele>
        <time>2021-01-31T08:56:49Z</time>
      </trkpt>
      <trkpt lat="46.040483526885509" lon="8.830330967903137">
        <ele>1594.5699999999999</ele>
        <time>2021-01-31T08:57:02Z</time>
      </trkpt>
      <trkpt lat="46.040473384782672" lon="8.830341193825007">
        <ele>1594.6600000000001</ele>
        <time>2021-01-31T08:57:15Z</time>
      </trkpt>
      <trkpt lat="46.040426278486848" lon="8.830434484407306">
        <ele>1595.47</ele>
        <time>2021-01-31T08:57:27Z</time>
      </trkpt>
      <trkpt lat="46.040378585457802" lon="8.830621317028999">
        <ele>1597.29</ele>
        <time>2021-01-31T08:57:45Z</time>
      </trkpt>
      <trkpt lat="46.040341621264815" lon="8.830758528783917">
        <ele>1599.01</ele>
        <time>2021-01-31T08:57:58Z</time>
      </trkpt>
      <trkpt lat="46.040316643193364" lon="8.830947624519467">
        <ele>1600.6300000000001</ele>
        <time>2021-01-31T08:58:14Z</time>
      </trkpt>
      <trkpt lat="46.040300885215402" lon="8.831088272854686">
        <ele>1601.6300000000001</ele>
        <time>2021-01-31T08:58:26Z</time>
      </trkpt>
      <trkpt lat="46.040317984297872" lon="8.83130838163197">
        <ele>1602.6300000000001</ele>
        <time>2021-01-31T08:58:45Z</time>
      </trkpt>
      <trkpt lat="46.04033013805747" lon="8.831494292244315">
        <ele>1604.02</ele>
        <time>2021-01-31T08:59:02Z</time>
      </trkpt>
      <trkpt lat="46.040349332615733" lon="8.831657823175192">
        <ele>1606.04</ele>
        <time>2021-01-31T08:59:19Z</time>
      </trkpt>
      <trkpt lat="46.040359139442444" lon="8.831804255023599">
        <ele>1608.0599999999999</ele>
        <time>2021-01-31T08:59:36Z</time>
      </trkpt>
      <trkpt lat="46.040376406162977" lon="8.831910202279687">
        <ele>1609.3599999999999</ele>
        <time>2021-01-31T08:59:50Z</time>
      </trkpt>
      <trkpt lat="46.040382189676166" lon="8.832014137879014">
        <ele>1611.1099999999999</ele>
        <time>2021-01-31T09:00:03Z</time>
      </trkpt>
      <trkpt lat="46.040365593507886" lon="8.832071973010898">
        <ele>1611.7</ele>
        <time>2021-01-31T09:00:20Z</time>
      </trkpt>
      <trkpt lat="46.040341956540942" lon="8.832187056541443">
        <ele>1611.48</ele>
        <time>2021-01-31T09:00:32Z</time>
      </trkpt>
      <trkpt lat="46.040342710912228" lon="8.832147410139442">
        <ele>1611.47</ele>
        <time>2021-01-31T09:00:55Z</time>
      </trkpt>
      <trkpt lat="46.040356373414397" lon="8.832149924710393">
        <ele>1611.25</ele>
        <time>2021-01-31T09:01:06Z</time>
      </trkpt>
      <trkpt lat="46.040346147492528" lon="8.832184290513396">
        <ele>1611.5899999999999</ele>
        <time>2021-01-31T09:01:16Z</time>
      </trkpt>
      <trkpt lat="46.040352853015065" lon="8.832192337140441">
        <ele>1610.73</ele>
        <time>2021-01-31T09:01:29Z</time>
      </trkpt>
      <trkpt lat="46.04035017080605" lon="8.832188230007887">
        <ele>1610.6600000000001</ele>
        <time>2021-01-31T09:01:56Z</time>
      </trkpt>
      <trkpt lat="46.040342459455132" lon="8.832180351018906">
        <ele>1610.6900000000001</ele>
        <time>2021-01-31T09:02:16Z</time>
      </trkpt>
      <trkpt lat="46.04034187272191" lon="8.832182614132762">
        <ele>1610.8199999999999</ele>
        <time>2021-01-31T09:02:37Z</time>
      </trkpt>
      <trkpt lat="46.040339609608054" lon="8.832188146188855">
        <ele>1610.74</ele>
        <time>2021-01-31T09:02:54Z</time>
      </trkpt>
      <trkpt lat="46.040327372029424" lon="8.832171885296702">
        <ele>1611.51</ele>
        <time>2021-01-31T09:03:10Z</time>
      </trkpt>
      <trkpt lat="46.040332317352295" lon="8.832170879468322">
        <ele>1611.8499999999999</ele>
        <time>2021-01-31T09:03:32Z</time>
      </trkpt>
      <trkpt lat="46.040336424484849" lon="8.83217272348702">
        <ele>1611.01</ele>
        <time>2021-01-31T09:03:49Z</time>
      </trkpt>
      <trkpt lat="46.040337346494198" lon="8.83217959664762">
        <ele>1611.0899999999999</ele>
        <time>2021-01-31T09:04:19Z</time>
      </trkpt>
      <trkpt lat="46.040335670113564" lon="8.832178842276335">
        <ele>1611.1800000000001</ele>
        <time>2021-01-31T09:04:55Z</time>
      </trkpt>
      <trkpt lat="46.040333155542612" lon="8.832175321877003">
        <ele>1611.0899999999999</ele>
        <time>2021-01-31T09:05:24Z</time>
      </trkpt>
      <trkpt lat="46.040332317352295" lon="8.832171130925417">
        <ele>1611.4300000000001</ele>
        <time>2021-01-31T09:05:49Z</time>
      </trkpt>
      <trkpt lat="46.040332987904549" lon="8.832170963287354">
        <ele>1611.2</ele>
        <time>2021-01-31T09:06:20Z</time>
      </trkpt>
      <trkpt lat="46.040332987904549" lon="8.832170544192195">
        <ele>1611.5799999999999</ele>
        <time>2021-01-31T09:07:04Z</time>
      </trkpt>
      <trkpt lat="46.040335670113564" lon="8.832171214744449">
        <ele>1611.6199999999999</ele>
        <time>2021-01-31T09:07:39Z</time>
      </trkpt>
      <trkpt lat="46.040333909913898" lon="8.832173980772495">
        <ele>1611.8299999999999</ele>
        <time>2021-01-31T09:08:14Z</time>
      </trkpt>
      <trkpt lat="46.040331562981009" lon="8.832169622182846">
        <ele>1612.1400000000001</ele>
        <time>2021-01-31T09:08:49Z</time>
      </trkpt>
      <trkpt lat="46.040332987904549" lon="8.832168867811561">
        <ele>1612.21</ele>
        <time>2021-01-31T09:09:38Z</time>
      </trkpt>
      <trkpt lat="46.040333490818739" lon="8.832170879468322">
        <ele>1611.72</ele>
        <time>2021-01-31T09:10:17Z</time>
      </trkpt>
      <trkpt lat="46.040335670113564" lon="8.83217322640121">
        <ele>1612.1900000000001</ele>
        <time>2021-01-31T09:11:02Z</time>
      </trkpt>
      <trkpt lat="46.040336927399039" lon="8.832174902781844">
        <ele>1612.1800000000001</ele>
        <time>2021-01-31T09:11:42Z</time>
      </trkpt>
      <trkpt lat="46.040335167199373" lon="8.832172807306051">
        <ele>1612.1300000000001</ele>
        <time>2021-01-31T09:12:17Z</time>
      </trkpt>
      <trkpt lat="46.040336592122912" lon="8.832172555848956">
        <ele>1612.25</ele>
        <time>2021-01-31T09:12:54Z</time>
      </trkpt>
      <trkpt lat="46.040339861065149" lon="8.832173142582178">
        <ele>1612.3</ele>
        <time>2021-01-31T09:13:29Z</time>
      </trkpt>
      <trkpt lat="46.040338100865483" lon="8.83217565715313">
        <ele>1612.3399999999999</ele>
        <time>2021-01-31T09:14:14Z</time>
      </trkpt>
      <trkpt lat="46.040335586294532" lon="8.832172974944115">
        <ele>1612.21</ele>
        <time>2021-01-31T09:14:46Z</time>
      </trkpt>
      <trkpt lat="46.040334077551961" lon="8.832169035449624">
        <ele>1612.6400000000001</ele>
        <time>2021-01-31T09:15:14Z</time>
      </trkpt>
      <trkpt lat="46.040330473333597" lon="8.832168867811561">
        <ele>1612.3399999999999</ele>
        <time>2021-01-31T09:15:50Z</time>
      </trkpt>
      <trkpt lat="46.040329551324248" lon="8.832171466201544">
        <ele>1612.5899999999999</ele>
        <time>2021-01-31T09:16:22Z</time>
      </trkpt>
      <trkpt lat="46.040327707305551" lon="8.832170208916068">
        <ele>1612.2</ele>
        <time>2021-01-31T09:16:50Z</time>
      </trkpt>
      <trkpt lat="46.040330221876502" lon="8.832175405696034">
        <ele>1611.8199999999999</ele>
        <time>2021-01-31T09:17:28Z</time>
      </trkpt>
      <trkpt lat="46.040330976247787" lon="8.832172555848956">
        <ele>1611.6500000000001</ele>
        <time>2021-01-31T09:18:06Z</time>
      </trkpt>
      <trkpt lat="46.040332484990358" lon="8.832172136753798">
        <ele>1612</ele>
        <time>2021-01-31T09:18:27Z</time>
      </trkpt>
      <trkpt lat="46.040332401171327" lon="8.832172555848956">
        <ele>1612</ele>
        <time>2021-01-31T09:18:54Z</time>
      </trkpt>
      <trkpt lat="46.040331562981009" lon="8.832180351018906">
        <ele>1611.8199999999999</ele>
        <time>2021-01-31T09:19:33Z</time>
      </trkpt>
      <trkpt lat="46.040333826094866" lon="8.832180267199874">
        <ele>1611.8599999999999</ele>
        <time>2021-01-31T09:20:15Z</time>
      </trkpt>
      <trkpt lat="46.040336843580008" lon="8.832182949408889">
        <ele>1611.71</ele>
        <time>2021-01-31T09:21:01Z</time>
      </trkpt>
      <trkpt lat="46.040338017046452" lon="8.832189487293363">
        <ele>1611.48</ele>
        <time>2021-01-31T09:21:41Z</time>
      </trkpt>
      <trkpt lat="46.040340112522244" lon="8.832190409302712">
        <ele>1612.1700000000001</ele>
        <time>2021-01-31T09:22:24Z</time>
      </trkpt>
      <trkpt lat="46.040341621264815" lon="8.832191163673997">
        <ele>1612.27</ele>
        <time>2021-01-31T09:22:59Z</time>
      </trkpt>
      <trkpt lat="46.040341118350625" lon="8.832190074026585">
        <ele>1612.27</ele>
        <time>2021-01-31T09:23:33Z</time>
      </trkpt>
      <trkpt lat="46.040343465283513" lon="8.832194432616234">
        <ele>1612.3599999999999</ele>
        <time>2021-01-31T09:24:10Z</time>
      </trkpt>
      <trkpt lat="46.040344471111894" lon="8.832195773720741">
        <ele>1612.24</ele>
        <time>2021-01-31T09:24:55Z</time>
      </trkpt>
      <trkpt lat="46.040345812216401" lon="8.832195773720741">
        <ele>1612.1099999999999</ele>
        <time>2021-01-31T09:25:40Z</time>
      </trkpt>
      <trkpt lat="46.040347069501877" lon="8.832198372110724">
        <ele>1612.2</ele>
        <time>2021-01-31T09:26:30Z</time>
      </trkpt>
      <trkpt lat="46.040348662063479" lon="8.832195773720741">
        <ele>1612.79</ele>
        <time>2021-01-31T09:27:22Z</time>
      </trkpt>
      <trkpt lat="46.040350589901209" lon="8.832198791205883">
        <ele>1612.71</ele>
        <time>2021-01-31T09:28:17Z</time>
      </trkpt>
      <trkpt lat="46.040351428091526" lon="8.832198791205883">
        <ele>1612.8800000000001</ele>
        <time>2021-01-31T09:28:59Z</time>
      </trkpt>
      <trkpt lat="46.040353188291192" lon="8.832200048491359">
        <ele>1612.3499999999999</ele>
        <time>2021-01-31T09:29:47Z</time>
      </trkpt>
      <trkpt lat="46.04035260155797" lon="8.832198539748788">
        <ele>1612.0799999999999</ele>
        <time>2021-01-31T09:30:25Z</time>
      </trkpt>
      <trkpt lat="46.04035603813827" lon="8.832198958843947">
        <ele>1612.03</ele>
        <time>2021-01-31T09:31:08Z</time>
      </trkpt>
      <trkpt lat="46.040333826094866" lon="8.832201054319739">
        <ele>1612.46</ele>
        <time>2021-01-31T09:31:39Z</time>
      </trkpt>
      <trkpt lat="46.040340531617403" lon="8.832212118431926">
        <ele>1613.3399999999999</ele>
        <time>2021-01-31T09:31:50Z</time>
      </trkpt>
      <trkpt lat="46.040326533839107" lon="8.832185715436935">
        <ele>1613.2</ele>
        <time>2021-01-31T09:32:13Z</time>
      </trkpt>
      <trkpt lat="46.040332652628422" lon="8.832181440666318">
        <ele>1613.5899999999999</ele>
        <time>2021-01-31T09:32:33Z</time>
      </trkpt>
      <trkpt lat="46.040325779467821" lon="8.832189654931426">
        <ele>1613.3699999999999</ele>
        <time>2021-01-31T09:32:48Z</time>
      </trkpt>
      <trkpt lat="46.040318571031094" lon="8.832167191430926">
        <ele>1613.1300000000001</ele>
        <time>2021-01-31T09:33:03Z</time>
      </trkpt>
      <trkpt lat="46.040318822488189" lon="8.832155372947455">
        <ele>1613.05</ele>
        <time>2021-01-31T09:33:14Z</time>
      </trkpt>
      <trkpt lat="46.040331395342946" lon="8.83216492831707">
        <ele>1613.0699999999999</ele>
        <time>2021-01-31T09:33:34Z</time>
      </trkpt>
      <trkpt lat="46.040331311523914" lon="8.832167191430926">
        <ele>1613.1600000000001</ele>
        <time>2021-01-31T09:33:54Z</time>
      </trkpt>
      <trkpt lat="46.040325444191694" lon="8.832176327705383">
        <ele>1613.4200000000001</ele>
        <time>2021-01-31T09:34:05Z</time>
      </trkpt>
      <trkpt lat="46.040326952934265" lon="8.832178842276335">
        <ele>1613.46</ele>
        <time>2021-01-31T09:34:23Z</time>
      </trkpt>
      <trkpt lat="46.040324773639441" lon="8.832180351018906">
        <ele>1613.04</ele>
        <time>2021-01-31T09:34:46Z</time>
      </trkpt>
      <trkpt lat="46.040323348715901" lon="8.832177417352796">
        <ele>1613.26</ele>
        <time>2021-01-31T09:35:06Z</time>
      </trkpt>
      <trkpt lat="46.040319995954633" lon="8.832175992429256">
        <ele>1613.0799999999999</ele>
        <time>2021-01-31T09:35:28Z</time>
      </trkpt>
      <trkpt lat="46.040320750325918" lon="8.832176327705383">
        <ele>1612.9300000000001</ele>
        <time>2021-01-31T09:35:47Z</time>
      </trkpt>
      <trkpt lat="46.040320917963982" lon="8.832166353240609">
        <ele>1612.6700000000001</ele>
        <time>2021-01-31T09:36:01Z</time>
      </trkpt>
      <trkpt lat="46.040320582687855" lon="8.832164006307721">
        <ele>1612.73</ele>
        <time>2021-01-31T09:36:36Z</time>
      </trkpt>
      <trkpt lat="46.040318487212062" lon="8.832160988822579">
        <ele>1612.8</ele>
        <time>2021-01-31T09:37:04Z</time>
      </trkpt>
      <trkpt lat="46.04032133705914" lon="8.832159312441945">
        <ele>1613</ele>
        <time>2021-01-31T09:37:29Z</time>
      </trkpt>
      <trkpt lat="46.040321504697204" lon="8.832162246108055">
        <ele>1613.02</ele>
        <time>2021-01-31T09:37:51Z</time>
      </trkpt>
      <trkpt lat="46.04032183997333" lon="8.832161827012897">
        <ele>1613.05</ele>
        <time>2021-01-31T09:38:18Z</time>
      </trkpt>
      <trkpt lat="46.040326952934265" lon="8.832170460373163">
        <ele>1613.4000000000001</ele>
        <time>2021-01-31T09:38:49Z</time>
      </trkpt>
      <trkpt lat="46.040321672335267" lon="8.832171717658639">
        <ele>1613.49</ele>
        <time>2021-01-31T09:39:09Z</time>
      </trkpt>
      <trkpt lat="46.040324689820409" lon="8.832167442888022">
        <ele>1613.27</ele>
        <time>2021-01-31T09:39:29Z</time>
      </trkpt>
      <trkpt lat="46.040322007611394" lon="8.832167526707053">
        <ele>1613.48</ele>
        <time>2021-01-31T09:39:53Z</time>
      </trkpt>
      <trkpt lat="46.040324186906219" lon="8.832161072641611">
        <ele>1613.27</ele>
        <time>2021-01-31T09:40:17Z</time>
      </trkpt>
      <trkpt lat="46.040320750325918" lon="8.832164090126753">
        <ele>1613.47</ele>
        <time>2021-01-31T09:40:34Z</time>
      </trkpt>
      <trkpt lat="46.040320917963982" lon="8.832168867811561">
        <ele>1613.46</ele>
        <time>2021-01-31T09:41:09Z</time>
      </trkpt>
      <trkpt lat="46.040326785296202" lon="8.832170628011227">
        <ele>1613.54</ele>
        <time>2021-01-31T09:41:45Z</time>
      </trkpt>
      <trkpt lat="46.040329886600375" lon="8.832174399867654">
        <ele>1613.46</ele>
        <time>2021-01-31T09:42:06Z</time>
      </trkpt>
      <trkpt lat="46.040329048410058" lon="8.832177417352796">
        <ele>1613.53</ele>
        <time>2021-01-31T09:42:21Z</time>
      </trkpt>
      <trkpt lat="46.040317229926586" lon="8.832196863368154">
        <ele>1613.46</ele>
        <time>2021-01-31T09:42:32Z</time>
      </trkpt>
      <trkpt lat="46.040326030924916" lon="8.832177249714732">
        <ele>1613.47</ele>
        <time>2021-01-31T09:42:42Z</time>
      </trkpt>
      <trkpt lat="46.040321672335267" lon="8.832163838669658">
        <ele>1613.1500000000001</ele>
        <time>2021-01-31T09:43:04Z</time>
      </trkpt>
      <trkpt lat="46.040328210219741" lon="8.832165850326419">
        <ele>1612.9400000000001</ele>
        <time>2021-01-31T09:43:22Z</time>
      </trkpt>
      <trkpt lat="46.040331395342946" lon="8.832162581384182">
        <ele>1612.77</ele>
        <time>2021-01-31T09:43:47Z</time>
      </trkpt>
      <trkpt lat="46.040319744497538" lon="8.832153361290693">
        <ele>1612.6400000000001</ele>
        <time>2021-01-31T09:44:06Z</time>
      </trkpt>
      <trkpt lat="46.040315637364984" lon="8.832146152853966">
        <ele>1612.55</ele>
        <time>2021-01-31T09:44:25Z</time>
      </trkpt>
      <trkpt lat="46.040327120572329" lon="8.832133412361145">
        <ele>1612.1500000000001</ele>
        <time>2021-01-31T09:44:45Z</time>
      </trkpt>
      <trkpt lat="46.040347488597035" lon="8.832107596099377">
        <ele>1612.51</ele>
        <time>2021-01-31T09:44:57Z</time>
      </trkpt>
      <trkpt lat="46.040354445576668" lon="8.832107679918408">
        <ele>1611.8699999999999</ele>
        <time>2021-01-31T09:45:14Z</time>
      </trkpt>
      <trkpt lat="46.040361821651459" lon="8.832113547250629">
        <ele>1612.22</ele>
        <time>2021-01-31T09:45:33Z</time>
      </trkpt>
      <trkpt lat="46.04036726988852" lon="8.832110948860645">
        <ele>1612.26</ele>
        <time>2021-01-31T09:45:52Z</time>
      </trkpt>
      <trkpt lat="46.040370119735599" lon="8.832112792879343">
        <ele>1612.2</ele>
        <time>2021-01-31T09:46:09Z</time>
      </trkpt>
      <trkpt lat="46.040371628478169" lon="8.83210826665163">
        <ele>1612.47</ele>
        <time>2021-01-31T09:46:23Z</time>
      </trkpt>
      <trkpt lat="46.040375987067819" lon="8.83210969157517">
        <ele>1612.45</ele>
        <time>2021-01-31T09:46:46Z</time>
      </trkpt>
      <trkpt lat="46.040376238524914" lon="8.832109943032265">
        <ele>1612.4400000000001</ele>
        <time>2021-01-31T09:47:15Z</time>
      </trkpt>
      <trkpt lat="46.040377747267485" lon="8.832048922777176">
        <ele>1611.99</ele>
        <time>2021-01-31T09:47:30Z</time>
      </trkpt>
      <trkpt lat="46.040395684540272" lon="8.831825293600559">
        <ele>1608.8099999999999</ele>
        <time>2021-01-31T09:47:42Z</time>
      </trkpt>
      <trkpt lat="46.040393924340606" lon="8.831607783213258">
        <ele>1605.73</ele>
        <time>2021-01-31T09:47:54Z</time>
      </trkpt>
      <trkpt lat="46.040387721732259" lon="8.83130100555718">
        <ele>1602.55</ele>
        <time>2021-01-31T09:48:11Z</time>
      </trkpt>
      <trkpt lat="46.04041856713593" lon="8.831039238721132">
        <ele>1600.3299999999999</ele>
        <time>2021-01-31T09:48:25Z</time>
      </trkpt>
      <trkpt lat="46.040452178567648" lon="8.830742351710796">
        <ele>1597.3299999999999</ele>
        <time>2021-01-31T09:48:42Z</time>
      </trkpt>
      <trkpt lat="46.040477994829416" lon="8.8305539265275">
        <ele>1596.79</ele>
        <time>2021-01-31T09:48:55Z</time>
      </trkpt>
      <trkpt lat="46.040495177730918" lon="8.830248573794961">
        <ele>1594.1800000000001</ele>
        <time>2021-01-31T09:49:14Z</time>
      </trkpt>
      <trkpt lat="46.040540607646108" lon="8.830014802515507">
        <ele>1590.9400000000001</ele>
        <time>2021-01-31T09:49:28Z</time>
      </trkpt>
      <trkpt lat="46.0405876301229" lon="8.829833753407002">
        <ele>1587.7</ele>
        <time>2021-01-31T09:49:39Z</time>
      </trkpt>
      <trkpt lat="46.040608333423734" lon="8.829656643792987">
        <ele>1584.5799999999999</ele>
        <time>2021-01-31T09:49:49Z</time>
      </trkpt>
      <trkpt lat="46.040650326758623" lon="8.829477187246084">
        <ele>1581.45</ele>
        <time>2021-01-31T09:50:00Z</time>
      </trkpt>
      <trkpt lat="46.040710341185331" lon="8.829314410686493">
        <ele>1578.4000000000001</ele>
        <time>2021-01-31T09:50:11Z</time>
      </trkpt>
      <trkpt lat="46.040737414732575" lon="8.829246181994677">
        <ele>1577.0799999999999</ele>
        <time>2021-01-31T09:50:23Z</time>
      </trkpt>
      <trkpt lat="46.040788628160954" lon="8.829077705740929">
        <ele>1574.55</ele>
        <time>2021-01-31T09:50:36Z</time>
      </trkpt>
      <trkpt lat="46.040808409452438" lon="8.828914593905211">
        <ele>1571.55</ele>
        <time>2021-01-31T09:50:47Z</time>
      </trkpt>
      <trkpt lat="46.040831040591002" lon="8.828762378543615">
        <ele>1568.53</ele>
        <time>2021-01-31T09:50:58Z</time>
      </trkpt>
      <trkpt lat="46.040855348110199" lon="8.828647714108229">
        <ele>1565.25</ele>
        <time>2021-01-31T09:51:08Z</time>
      </trkpt>
      <trkpt lat="46.040895916521549" lon="8.828593399375677">
        <ele>1563.6500000000001</ele>
        <time>2021-01-31T09:51:15Z</time>
      </trkpt>
      <trkpt lat="46.040941262617707" lon="8.828494492918253">
        <ele>1560.3299999999999</ele>
        <time>2021-01-31T09:51:28Z</time>
      </trkpt>
      <trkpt lat="46.040979903191328" lon="8.828416541218758">
        <ele>1556.8699999999999</ele>
        <time>2021-01-31T09:51:37Z</time>
      </trkpt>
      <trkpt lat="46.040992476046085" lon="8.828381504863501">
        <ele>1555.23</ele>
        <time>2021-01-31T09:51:41Z</time>
      </trkpt>
      <trkpt lat="46.041013933718204" lon="8.828301960602403">
        <ele>1552.7</ele>
        <time>2021-01-31T09:51:48Z</time>
      </trkpt>
      <trkpt lat="46.041030948981643" lon="8.828255105763674">
        <ele>1551.1300000000001</ele>
        <time>2021-01-31T09:51:52Z</time>
      </trkpt>
      <trkpt lat="46.041063219308853" lon="8.828154942020774">
        <ele>1547.9000000000001</ele>
        <time>2021-01-31T09:52:02Z</time>
      </trkpt>
      <trkpt lat="46.041097417473793" lon="8.828063076362014">
        <ele>1544.8399999999999</ele>
        <time>2021-01-31T09:52:11Z</time>
      </trkpt>
      <trkpt lat="46.041083922609687" lon="8.827970707789064">
        <ele>1541.3299999999999</ele>
        <time>2021-01-31T09:52:20Z</time>
      </trkpt>
      <trkpt lat="46.041104290634394" lon="8.827886553481221">
        <ele>1537.98</ele>
        <time>2021-01-31T09:52:28Z</time>
      </trkpt>
      <trkpt lat="46.041067326441407" lon="8.827813547104597">
        <ele>1534.8900000000001</ele>
        <time>2021-01-31T09:52:38Z</time>
      </trkpt>
      <trkpt lat="46.041074618697166" lon="8.827723357826471">
        <ele>1531.77</ele>
        <time>2021-01-31T09:52:47Z</time>
      </trkpt>
      <trkpt lat="46.041090879589319" lon="8.827633168548346">
        <ele>1528.7</ele>
        <time>2021-01-31T09:52:57Z</time>
      </trkpt>
      <trkpt lat="46.041094064712524" lon="8.827586732804775">
        <ele>1526.98</ele>
        <time>2021-01-31T09:53:02Z</time>
      </trkpt>
      <trkpt lat="46.041115103289485" lon="8.82747357711196">
        <ele>1523.6199999999999</ele>
        <time>2021-01-31T09:53:13Z</time>
      </trkpt>
      <trkpt lat="46.04110705666244" lon="8.827388416975737">
        <ele>1520.3599999999999</ele>
        <time>2021-01-31T09:53:22Z</time>
      </trkpt>
      <trkpt lat="46.041098088026047" lon="8.827298898249865">
        <ele>1516.8199999999999</ele>
        <time>2021-01-31T09:53:32Z</time>
      </trkpt>
      <trkpt lat="46.041115019470453" lon="8.827202674001455">
        <ele>1513.5699999999999</ele>
        <time>2021-01-31T09:53:41Z</time>
      </trkpt>
      <trkpt lat="46.041114265099168" lon="8.827098570764065">
        <ele>1510.3599999999999</ele>
        <time>2021-01-31T09:53:52Z</time>
      </trkpt>
      <trkpt lat="46.041133962571621" lon="8.827017936855555">
        <ele>1507.6700000000001</ele>
        <time>2021-01-31T09:54:05Z</time>
      </trkpt>
      <trkpt lat="46.041143601760268" lon="8.826956413686276">
        <ele>1505.6199999999999</ele>
        <time>2021-01-31T09:54:17Z</time>
      </trkpt>
      <trkpt lat="46.041153576225042" lon="8.826859183609486">
        <ele>1502.45</ele>
        <time>2021-01-31T09:54:29Z</time>
      </trkpt>
      <trkpt lat="46.041153743863106" lon="8.826837055385113">
        <ele>1501.47</ele>
        <time>2021-01-31T09:54:31Z</time>
      </trkpt>
      <trkpt lat="46.041148966178298" lon="8.826735801994801">
        <ele>1498.4200000000001</ele>
        <time>2021-01-31T09:54:41Z</time>
      </trkpt>
      <trkpt lat="46.041172184050083" lon="8.826634380966425">
        <ele>1495.22</ele>
        <time>2021-01-31T09:54:51Z</time>
      </trkpt>
      <trkpt lat="46.04117788374424" lon="8.826522314921022">
        <ele>1491.98</ele>
        <time>2021-01-31T09:55:03Z</time>
      </trkpt>
      <trkpt lat="46.04120671749115" lon="8.826462803408504">
        <ele>1489.77</ele>
        <time>2021-01-31T09:55:15Z</time>
      </trkpt>
      <trkpt lat="46.041202442720532" lon="8.826462216675282">
        <ele>1490.04</ele>
        <time>2021-01-31T09:55:36Z</time>
      </trkpt>
      <trkpt lat="46.041202023625374" lon="8.826458193361759">
        <ele>1490.1400000000001</ele>
        <time>2021-01-31T09:56:04Z</time>
      </trkpt>
      <trkpt lat="46.041230522096157" lon="8.826425587758422">
        <ele>1489.51</ele>
        <time>2021-01-31T09:56:30Z</time>
      </trkpt>
      <trkpt lat="46.041252985596657" lon="8.826377978548408">
        <ele>1487.8199999999999</ele>
        <time>2021-01-31T09:56:34Z</time>
      </trkpt>
      <trkpt lat="46.041283160448074" lon="8.82630430161953">
        <ele>1485.8800000000001</ele>
        <time>2021-01-31T09:56:39Z</time>
      </trkpt>
      <trkpt lat="46.041356418281794" lon="8.826148901134729">
        <ele>1482.23</ele>
        <time>2021-01-31T09:56:51Z</time>
      </trkpt>
      <trkpt lat="46.041423892602324" lon="8.825927451252937">
        <ele>1479.1800000000001</ele>
        <time>2021-01-31T09:57:05Z</time>
      </trkpt>
      <trkpt lat="46.041469322517514" lon="8.825702229514718">
        <ele>1476.1500000000001</ele>
        <time>2021-01-31T09:57:19Z</time>
      </trkpt>
      <trkpt lat="46.041516261175275" lon="8.825584128499031">
        <ele>1475.8699999999999</ele>
        <time>2021-01-31T09:57:32Z</time>
      </trkpt>
      <trkpt lat="46.041513411328197" lon="8.82556795142591">
        <ele>1475.8399999999999</ele>
        <time>2021-01-31T09:57:42Z</time>
      </trkpt>
      <trkpt lat="46.041521625593305" lon="8.825525371357799">
        <ele>1475.75</ele>
        <time>2021-01-31T09:57:45Z</time>
      </trkpt>
      <trkpt lat="46.041555069386959" lon="8.825296126306057">
        <ele>1472.8499999999999</ele>
        <time>2021-01-31T09:58:00Z</time>
      </trkpt>
      <trkpt lat="46.041568983346224" lon="8.825104515999556">
        <ele>1469.77</ele>
        <time>2021-01-31T09:58:12Z</time>
      </trkpt>
      <trkpt lat="46.041580466553569" lon="8.825032599270344">
        <ele>1467.9000000000001</ele>
        <time>2021-01-31T09:58:22Z</time>
      </trkpt>
      <trkpt lat="46.041589099913836" lon="8.825002256780863">
        <ele>1467.6099999999999</ele>
        <time>2021-01-31T09:58:27Z</time>
      </trkpt>
      <trkpt lat="46.041602846235037" lon="8.824933525174856">
        <ele>1466.3599999999999</ele>
        <time>2021-01-31T09:58:36Z</time>
      </trkpt>
      <trkpt lat="46.041642911732197" lon="8.82473336532712">
        <ele>1463.0699999999999</ele>
        <time>2021-01-31T09:58:49Z</time>
      </trkpt>
      <trkpt lat="46.041642660275102" lon="8.824538486078382">
        <ele>1459.96</ele>
        <time>2021-01-31T09:59:01Z</time>
      </trkpt>
      <trkpt lat="46.041628830134869" lon="8.824251824989915">
        <ele>1456.9400000000001</ele>
        <time>2021-01-31T09:59:18Z</time>
      </trkpt>
      <trkpt lat="46.041599493473768" lon="8.823950914666057">
        <ele>1453.9000000000001</ele>
        <time>2021-01-31T09:59:35Z</time>
      </trkpt>
      <trkpt lat="46.041628746315837" lon="8.823609855026007">
        <ele>1451.4300000000001</ele>
        <time>2021-01-31T09:59:54Z</time>
      </trkpt>
      <trkpt lat="46.041644923388958" lon="8.823310704901815">
        <ele>1448.3800000000001</ele>
        <time>2021-01-31T10:00:11Z</time>
      </trkpt>
      <trkpt lat="46.041661268100142" lon="8.823130829259753">
        <ele>1446.52</ele>
        <time>2021-01-31T10:00:27Z</time>
      </trkpt>
      <trkpt lat="46.041667722165585" lon="8.82306419312954">
        <ele>1445.79</ele>
        <time>2021-01-31T10:00:31Z</time>
      </trkpt>
      <trkpt lat="46.041716504842043" lon="8.822686588391662">
        <ele>1443.0599999999999</ele>
        <time>2021-01-31T10:00:52Z</time>
      </trkpt>
      <trkpt lat="46.04173930361867" lon="8.822417194023728">
        <ele>1443.6700000000001</ele>
        <time>2021-01-31T10:01:08Z</time>
      </trkpt>
      <trkpt lat="46.041759001091123" lon="8.822146207094193">
        <ele>1444.5899999999999</ele>
        <time>2021-01-31T10:01:25Z</time>
      </trkpt>
      <trkpt lat="46.041801664978266" lon="8.821924421936274">
        <ele>1444.6700000000001</ele>
        <time>2021-01-31T10:01:40Z</time>
      </trkpt>
      <trkpt lat="46.041857739910483" lon="8.821612196043134">
        <ele>1443.78</ele>
        <time>2021-01-31T10:02:00Z</time>
      </trkpt>
      <trkpt lat="46.041898811236024" lon="8.821392422541976">
        <ele>1440.6099999999999</ele>
        <time>2021-01-31T10:02:14Z</time>
      </trkpt>
      <trkpt lat="46.041970979422331" lon="8.821138869971037">
        <ele>1437.51</ele>
        <time>2021-01-31T10:02:30Z</time>
      </trkpt>
      <trkpt lat="46.042013894766569" lon="8.821025546640158">
        <ele>1436.9400000000001</ele>
        <time>2021-01-31T10:02:40Z</time>
      </trkpt>
      <trkpt lat="46.04202764108777" lon="8.820978691801429">
        <ele>1436.55</ele>
        <time>2021-01-31T10:02:43Z</time>
      </trkpt>
      <trkpt lat="46.042106682434678" lon="8.820684151723981">
        <ele>1433.3399999999999</ele>
        <time>2021-01-31T10:03:01Z</time>
      </trkpt>
      <trkpt lat="46.042165439575911" lon="8.820506706833839">
        <ele>1431.4100000000001</ele>
        <time>2021-01-31T10:03:13Z</time>
      </trkpt>
      <trkpt lat="46.042247414588928" lon="8.820268912240863">
        <ele>1428.75</ele>
        <time>2021-01-31T10:03:28Z</time>
      </trkpt>
      <trkpt lat="46.042346321046352" lon="8.820027261972427">
        <ele>1425.72</ele>
        <time>2021-01-31T10:03:44Z</time>
      </trkpt>
      <trkpt lat="46.042366018518806" lon="8.819917710497975">
        <ele>1423.3</ele>
        <time>2021-01-31T10:03:54Z</time>
      </trkpt>
      <trkpt lat="46.042382447049022" lon="8.81985928863287">
        <ele>1422.02</ele>
        <time>2021-01-31T10:03:58Z</time>
      </trkpt>
      <trkpt lat="46.042443551123142" lon="8.819767003878951">
        <ele>1419.3399999999999</ele>
        <time>2021-01-31T10:04:04Z</time>
      </trkpt>
      <trkpt lat="46.042522005736828" lon="8.819678407162428">
        <ele>1415.6800000000001</ele>
        <time>2021-01-31T10:04:11Z</time>
      </trkpt>
      <trkpt lat="46.042557712644339" lon="8.819611938670278">
        <ele>1413.77</ele>
        <time>2021-01-31T10:04:15Z</time>
      </trkpt>
      <trkpt lat="46.042615128681064" lon="8.819504315033555">
        <ele>1410.24</ele>
        <time>2021-01-31T10:04:21Z</time>
      </trkpt>
      <trkpt lat="46.042674221098423" lon="8.819396942853928">
        <ele>1406.99</ele>
        <time>2021-01-31T10:04:29Z</time>
      </trkpt>
      <trkpt lat="46.042693834751844" lon="8.819354195147753">
        <ele>1405.96</ele>
        <time>2021-01-31T10:04:32Z</time>
      </trkpt>
      <trkpt lat="46.042726188898087" lon="8.819210613146424">
        <ele>1402.78</ele>
        <time>2021-01-31T10:04:42Z</time>
      </trkpt>
      <trkpt lat="46.042745383456349" lon="8.819071473553777">
        <ele>1398.9000000000001</ele>
        <time>2021-01-31T10:04:53Z</time>
      </trkpt>
      <trkpt lat="46.042738845571876" lon="8.818949013948441">
        <ele>1396</ele>
        <time>2021-01-31T10:05:04Z</time>
      </trkpt>
      <trkpt lat="46.042702635750175" lon="8.818844491615892">
        <ele>1392.98</ele>
        <time>2021-01-31T10:05:14Z</time>
      </trkpt>
      <trkpt lat="46.042687380686402" lon="8.818817753344774">
        <ele>1392.9400000000001</ele>
        <time>2021-01-31T10:05:17Z</time>
      </trkpt>
      <trkpt lat="46.042623175308108" lon="8.818736532703042">
        <ele>1390.26</ele>
        <time>2021-01-31T10:05:30Z</time>
      </trkpt>
      <trkpt lat="46.042622001841664" lon="8.818721864372492">
        <ele>1390.6900000000001</ele>
        <time>2021-01-31T10:05:46Z</time>
      </trkpt>
      <trkpt lat="46.042639520019293" lon="8.818716332316399">
        <ele>1390.54</ele>
        <time>2021-01-31T10:06:08Z</time>
      </trkpt>
      <trkpt lat="46.042644549161196" lon="8.818702753633261">
        <ele>1390.3900000000001</ele>
        <time>2021-01-31T10:06:09Z</time>
      </trkpt>
      <trkpt lat="46.042661145329475" lon="8.818642739206553">
        <ele>1389.1400000000001</ele>
        <time>2021-01-31T10:06:13Z</time>
      </trkpt>
      <trkpt lat="46.042699785903096" lon="8.818544000387192">
        <ele>1385.53</ele>
        <time>2021-01-31T10:06:22Z</time>
      </trkpt>
      <trkpt lat="46.042694421485066" lon="8.818441154435277">
        <ele>1382.4100000000001</ele>
        <time>2021-01-31T10:06:31Z</time>
      </trkpt>
      <trkpt lat="46.042724847793579" lon="8.81833478808403">
        <ele>1379.21</ele>
        <time>2021-01-31T10:06:40Z</time>
      </trkpt>
      <trkpt lat="46.04272099211812" lon="8.818237306550145">
        <ele>1375.6900000000001</ele>
        <time>2021-01-31T10:06:50Z</time>
      </trkpt>
      <trkpt lat="46.042727781459689" lon="8.818120965734124">
        <ele>1372.46</ele>
        <time>2021-01-31T10:06:59Z</time>
      </trkpt>
      <trkpt lat="46.042725015431643" lon="8.818073691800237">
        <ele>1370.95</ele>
        <time>2021-01-31T10:07:02Z</time>
      </trkpt>
      <trkpt lat="46.042719651013613" lon="8.818016108125448">
        <ele>1369.6400000000001</ele>
        <time>2021-01-31T10:07:06Z</time>
      </trkpt>
      <trkpt lat="46.042707245796919" lon="8.817917788401246">
        <ele>1366.8699999999999</ele>
        <time>2021-01-31T10:07:15Z</time>
      </trkpt>
      <trkpt lat="46.042700707912445" lon="8.817897001281381">
        <ele>1365.5699999999999</ele>
        <time>2021-01-31T10:07:27Z</time>
      </trkpt>
      <trkpt lat="46.042705485597253" lon="8.817927511408925">
        <ele>1365.6800000000001</ele>
        <time>2021-01-31T10:07:44Z</time>
      </trkpt>
      <trkpt lat="46.042741695418954" lon="8.817943939939141">
        <ele>1365.3699999999999</ele>
        <time>2021-01-31T10:07:59Z</time>
      </trkpt>
      <trkpt lat="46.042734906077385" lon="8.817960871383548">
        <ele>1364.8900000000001</ele>
        <time>2021-01-31T10:08:16Z</time>
      </trkpt>
      <trkpt lat="46.042716968804598" lon="8.817957518622279">
        <ele>1365.03</ele>
        <time>2021-01-31T10:08:35Z</time>
      </trkpt>
      <trkpt lat="46.04269458912313" lon="8.817890882492065">
        <ele>1364.4300000000001</ele>
        <time>2021-01-31T10:08:49Z</time>
      </trkpt>
      <trkpt lat="46.042660474777222" lon="8.817797591909766">
        <ele>1361.3099999999999</ele>
        <time>2021-01-31T10:08:58Z</time>
      </trkpt>
      <trkpt lat="46.042647734284401" lon="8.817665744572878">
        <ele>1358.23</ele>
        <time>2021-01-31T10:09:06Z</time>
      </trkpt>
      <trkpt lat="46.042647315189242" lon="8.817593911662698">
        <ele>1356.9100000000001</ele>
        <time>2021-01-31T10:09:21Z</time>
      </trkpt>
      <trkpt lat="46.042659468948841" lon="8.817520821467042">
        <ele>1355.3699999999999</ele>
        <time>2021-01-31T10:09:35Z</time>
      </trkpt>
      <trkpt lat="46.042647315189242" lon="8.817409509792924">
        <ele>1351.77</ele>
        <time>2021-01-31T10:09:45Z</time>
      </trkpt>
      <trkpt lat="46.042578918859363" lon="8.817284535616636">
        <ele>1348.48</ele>
        <time>2021-01-31T10:09:59Z</time>
      </trkpt>
      <trkpt lat="46.04257196187973" lon="8.817169703543186">
        <ele>1345.3599999999999</ele>
        <time>2021-01-31T10:10:11Z</time>
      </trkpt>
      <trkpt lat="46.042520245537162" lon="8.817079933360219">
        <ele>1341.71</ele>
        <time>2021-01-31T10:10:22Z</time>
      </trkpt>
      <trkpt lat="46.042518736794591" lon="8.817071719095111">
        <ele>1341.5799999999999</ele>
        <time>2021-01-31T10:10:23Z</time>
      </trkpt>
      <trkpt lat="46.042531980201602" lon="8.816975327208638">
        <ele>1338.3900000000001</ele>
        <time>2021-01-31T10:10:33Z</time>
      </trkpt>
      <trkpt lat="46.042532902210951" lon="8.816824536770582">
        <ele>1335.1099999999999</ele>
        <time>2021-01-31T10:10:44Z</time>
      </trkpt>
      <trkpt lat="46.042522005736828" lon="8.816686905920506">
        <ele>1332.02</ele>
        <time>2021-01-31T10:10:55Z</time>
      </trkpt>
      <trkpt lat="46.042535668238997" lon="8.816544329747558">
        <ele>1328.9200000000001</ele>
        <time>2021-01-31T10:11:08Z</time>
      </trkpt>
      <trkpt lat="46.042510271072388" lon="8.816398149356246">
        <ele>1326.9100000000001</ele>
        <time>2021-01-31T10:11:20Z</time>
      </trkpt>
      <trkpt lat="46.042518904432654" lon="8.816329501569271">
        <ele>1326.8800000000001</ele>
        <time>2021-01-31T10:11:29Z</time>
      </trkpt>
      <trkpt lat="46.042524017393589" lon="8.816313240677118">
        <ele>1326.73</ele>
        <time>2021-01-31T10:11:41Z</time>
      </trkpt>
      <trkpt lat="46.042496860027313" lon="8.816389432176948">
        <ele>1326.46</ele>
        <time>2021-01-31T10:11:47Z</time>
      </trkpt>
      <trkpt lat="46.042425613850355" lon="8.816448440775275">
        <ele>1324.96</ele>
        <time>2021-01-31T10:11:58Z</time>
      </trkpt>
      <trkpt lat="46.042395103722811" lon="8.816427486017346">
        <ele>1322.0599999999999</ele>
        <time>2021-01-31T10:12:08Z</time>
      </trkpt>
      <trkpt lat="46.042388146743178" lon="8.816424384713173">
        <ele>1321.5699999999999</ele>
        <time>2021-01-31T10:12:09Z</time>
      </trkpt>
      <trkpt lat="46.042326623573899" lon="8.81642765365541">
        <ele>1318.1600000000001</ele>
        <time>2021-01-31T10:12:19Z</time>
      </trkpt>
      <trkpt lat="46.042265016585588" lon="8.81649462506175">
        <ele>1315.78</ele>
        <time>2021-01-31T10:12:29Z</time>
      </trkpt>
      <trkpt lat="46.04222260415554" lon="8.816547933965921">
        <ele>1313.9100000000001</ele>
        <time>2021-01-31T10:12:42Z</time>
      </trkpt>
      <trkpt lat="46.042148927226663" lon="8.816591436043382">
        <ele>1311.1099999999999</ele>
        <time>2021-01-31T10:12:56Z</time>
      </trkpt>
      <trkpt lat="46.0421107057482" lon="8.816598057746887">
        <ele>1309.5799999999999</ele>
        <time>2021-01-31T10:13:05Z</time>
      </trkpt>
      <trkpt lat="46.042057145386934" lon="8.816579030826688">
        <ele>1306.98</ele>
        <time>2021-01-31T10:13:17Z</time>
      </trkpt>
      <trkpt lat="46.042063347995281" lon="8.816417595371604">
        <ele>1303.3399999999999</ele>
        <time>2021-01-31T10:13:31Z</time>
      </trkpt>
      <trkpt lat="46.042052786797285" lon="8.816283149644733">
        <ele>1300.1700000000001</ele>
        <time>2021-01-31T10:13:43Z</time>
      </trkpt>
      <trkpt lat="46.042050858959556" lon="8.816254315897822">
        <ele>1299.7</ele>
        <time>2021-01-31T10:13:45Z</time>
      </trkpt>
      <trkpt lat="46.042102575302124" lon="8.816117774695158">
        <ele>1297.21</ele>
        <time>2021-01-31T10:13:58Z</time>
      </trkpt>
      <trkpt lat="46.042103664949536" lon="8.815998416393995">
        <ele>1294.2</ele>
        <time>2021-01-31T10:14:08Z</time>
      </trkpt>
      <trkpt lat="46.042143143713474" lon="8.81585206836462">
        <ele>1291.1400000000001</ele>
        <time>2021-01-31T10:14:21Z</time>
      </trkpt>
      <trkpt lat="46.042184550315142" lon="8.815684514120221">
        <ele>1287.8599999999999</ele>
        <time>2021-01-31T10:14:33Z</time>
      </trkpt>
      <trkpt lat="46.042197123169899" lon="8.815658446401358">
        <ele>1287.3199999999999</ele>
        <time>2021-01-31T10:14:44Z</time>
      </trkpt>
      <trkpt lat="46.042198715731502" lon="8.815653752535582">
        <ele>1287.3800000000001</ele>
        <time>2021-01-31T10:14:56Z</time>
      </trkpt>
      <trkpt lat="46.042198380455375" lon="8.815577393397689">
        <ele>1286.01</ele>
        <time>2021-01-31T10:15:12Z</time>
      </trkpt>
      <trkpt lat="46.042173486202955" lon="8.815510086715221">
        <ele>1283.54</ele>
        <time>2021-01-31T10:15:24Z</time>
      </trkpt>
      <trkpt lat="46.04213560000062" lon="8.815454430878162">
        <ele>1280.1300000000001</ele>
        <time>2021-01-31T10:15:36Z</time>
      </trkpt>
      <trkpt lat="46.042131911963224" lon="8.81535560823977">
        <ele>1277.5</ele>
        <time>2021-01-31T10:15:47Z</time>
      </trkpt>
      <trkpt lat="46.042141718789935" lon="8.815276566892862">
        <ele>1274.8699999999999</ele>
        <time>2021-01-31T10:15:57Z</time>
      </trkpt>
      <trkpt lat="46.042133253067732" lon="8.815191239118576">
        <ele>1272.1500000000001</ele>
        <time>2021-01-31T10:16:09Z</time>
      </trkpt>
      <trkpt lat="46.042119506746531" lon="8.81512007676065">
        <ele>1269.0699999999999</ele>
        <time>2021-01-31T10:16:19Z</time>
      </trkpt>
      <trkpt lat="46.042092433199286" lon="8.815036760643125">
        <ele>1265.76</ele>
        <time>2021-01-31T10:16:32Z</time>
      </trkpt>
      <trkpt lat="46.04204717092216" lon="8.814982194453478">
        <ele>1262.6600000000001</ele>
        <time>2021-01-31T10:16:47Z</time>
      </trkpt>
      <trkpt lat="46.042023114860058" lon="8.814919413998723">
        <ele>1259.6700000000001</ele>
        <time>2021-01-31T10:17:00Z</time>
      </trkpt>
      <trkpt lat="46.04197483509779" lon="8.814888903871179">
        <ele>1256.5599999999999</ele>
        <time>2021-01-31T10:17:09Z</time>
      </trkpt>
      <trkpt lat="46.041939631104469" lon="8.814898459240794">
        <ele>1255.5</ele>
        <time>2021-01-31T10:17:21Z</time>
      </trkpt>
      <trkpt lat="46.041919849812984" lon="8.814922431483865">
        <ele>1255.3199999999999</ele>
        <time>2021-01-31T10:17:40Z</time>
      </trkpt>
      <trkpt lat="46.041930327191949" lon="8.814946236088872">
        <ele>1255.4000000000001</ele>
        <time>2021-01-31T10:18:01Z</time>
      </trkpt>
      <trkpt lat="46.041935356333852" lon="8.814846239984036">
        <ele>1253.45</ele>
        <time>2021-01-31T10:18:13Z</time>
      </trkpt>
      <trkpt lat="46.041923454031348" lon="8.814755044877529">
        <ele>1250.27</ele>
        <time>2021-01-31T10:18:26Z</time>
      </trkpt>
      <trkpt lat="46.041895458474755" lon="8.814745824784041">
        <ele>1248.0799999999999</ele>
        <time>2021-01-31T10:18:36Z</time>
      </trkpt>
      <trkpt lat="46.041860254481435" lon="8.814733922481537">
        <ele>1246.2</ele>
        <time>2021-01-31T10:18:48Z</time>
      </trkpt>
      <trkpt lat="46.041871905326843" lon="8.814688911661506">
        <ele>1245.6099999999999</ele>
        <time>2021-01-31T10:18:58Z</time>
      </trkpt>
      <trkpt lat="46.041945330798626" lon="8.814505096524954">
        <ele>1242.96</ele>
        <time>2021-01-31T10:19:11Z</time>
      </trkpt>
      <trkpt lat="46.042028060182929" lon="8.814324047416449">
        <ele>1240.1199999999999</ele>
        <time>2021-01-31T10:19:25Z</time>
      </trkpt>
      <trkpt lat="46.042107101529837" lon="8.814159175381064">
        <ele>1236.97</ele>
        <time>2021-01-31T10:19:38Z</time>
      </trkpt>
      <trkpt lat="46.042162086814642" lon="8.814052976667881">
        <ele>1233.9200000000001</ele>
        <time>2021-01-31T10:19:47Z</time>
      </trkpt>
      <trkpt lat="46.042230734601617" lon="8.81396546959877">
        <ele>1230.8699999999999</ele>
        <time>2021-01-31T10:19:57Z</time>
      </trkpt>
      <trkpt lat="46.042257808148861" lon="8.813900174573064">
        <ele>1229.0899999999999</ele>
        <time>2021-01-31T10:20:02Z</time>
      </trkpt>
      <trkpt lat="46.042296029627323" lon="8.813795568421483">
        <ele>1227.51</ele>
        <time>2021-01-31T10:20:13Z</time>
      </trkpt>
      <trkpt lat="46.042343974113464" lon="8.813738906756043">
        <ele>1225.3599999999999</ele>
        <time>2021-01-31T10:20:22Z</time>
      </trkpt>
      <trkpt lat="46.042459141463041" lon="8.813681406900287">
        <ele>1223.4000000000001</ele>
        <time>2021-01-31T10:20:36Z</time>
      </trkpt>
      <trkpt lat="46.042572967708111" lon="8.813606975600123">
        <ele>1220.2</ele>
        <time>2021-01-31T10:20:50Z</time>
      </trkpt>
      <trkpt lat="46.042681345716119" lon="8.813475631177425">
        <ele>1217.9300000000001</ele>
        <time>2021-01-31T10:21:03Z</time>
      </trkpt>
      <trkpt lat="46.042701462283731" lon="8.813464567065239">
        <ele>1217.4300000000001</ele>
        <time>2021-01-31T10:21:05Z</time>
      </trkpt>
      <trkpt lat="46.04274689219892" lon="8.813408156856895">
        <ele>1216.45</ele>
        <time>2021-01-31T10:21:09Z</time>
      </trkpt>
      <trkpt lat="46.042827442288399" lon="8.813299024477601">
        <ele>1214.0899999999999</ele>
        <time>2021-01-31T10:21:18Z</time>
      </trkpt>
      <trkpt lat="46.042913775891066" lon="8.813218055292964">
        <ele>1211.5699999999999</ele>
        <time>2021-01-31T10:21:27Z</time>
      </trkpt>
      <trkpt lat="46.043014694005251" lon="8.813103726133704">
        <ele>1208.51</ele>
        <time>2021-01-31T10:21:39Z</time>
      </trkpt>
      <trkpt lat="46.04302098043263" lon="8.813076401129365">
        <ele>1208.4400000000001</ele>
        <time>2021-01-31T10:21:41Z</time>
      </trkpt>
      <trkpt lat="46.043091053143144" lon="8.81293348968029">
        <ele>1205.2</ele>
        <time>2021-01-31T10:21:52Z</time>
      </trkpt>
      <trkpt lat="46.043152157217264" lon="8.812799714505673">
        <ele>1202.05</ele>
        <time>2021-01-31T10:22:02Z</time>
      </trkpt>
      <trkpt lat="46.043209573253989" lon="8.81261682137847">
        <ele>1199.02</ele>
        <time>2021-01-31T10:22:14Z</time>
      </trkpt>
      <trkpt lat="46.043217536062002" lon="8.812586730346084">
        <ele>1198.6400000000001</ele>
        <time>2021-01-31T10:22:16Z</time>
      </trkpt>
      <trkpt lat="46.043258188292384" lon="8.812461001798511">
        <ele>1195.99</ele>
        <time>2021-01-31T10:22:26Z</time>
      </trkpt>
      <trkpt lat="46.043259529396892" lon="8.812349522486329">
        <ele>1193.9100000000001</ele>
        <time>2021-01-31T10:22:33Z</time>
      </trkpt>
      <trkpt lat="46.043311664834619" lon="8.81217559799552">
        <ele>1190.3599999999999</ele>
        <time>2021-01-31T10:22:46Z</time>
      </trkpt>
      <trkpt lat="46.043339492753148" lon="8.812104016542435">
        <ele>1188.8800000000001</ele>
        <time>2021-01-31T10:22:53Z</time>
      </trkpt>
      <trkpt lat="46.043373188003898" lon="8.811997398734093">
        <ele>1186.8699999999999</ele>
        <time>2021-01-31T10:23:01Z</time>
      </trkpt>
      <trkpt lat="46.043363800272346" lon="8.811876364052296">
        <ele>1184.6600000000001</ele>
        <time>2021-01-31T10:23:08Z</time>
      </trkpt>
      <trkpt lat="46.043416941538453" lon="8.811773518100381">
        <ele>1182.72</ele>
        <time>2021-01-31T10:23:19Z</time>
      </trkpt>
      <trkpt lat="46.043356256559491" lon="8.811646029353142">
        <ele>1180.49</ele>
        <time>2021-01-31T10:23:32Z</time>
      </trkpt>
      <trkpt lat="46.043342426419258" lon="8.811627253890038">
        <ele>1180.29</ele>
        <time>2021-01-31T10:23:34Z</time>
      </trkpt>
      <trkpt lat="46.043381905183196" lon="8.811557684093714">
        <ele>1178.95</ele>
        <time>2021-01-31T10:23:45Z</time>
      </trkpt>
      <trkpt lat="46.043354077264667" lon="8.811523402109742">
        <ele>1178.05</ele>
        <time>2021-01-31T10:23:49Z</time>
      </trkpt>
      <trkpt lat="46.043210411444306" lon="8.811485348269343">
        <ele>1175.77</ele>
        <time>2021-01-31T10:24:02Z</time>
      </trkpt>
      <trkpt lat="46.043170094490051" lon="8.811320643872023">
        <ele>1173.0999999999999</ele>
        <time>2021-01-31T10:24:13Z</time>
      </trkpt>
      <trkpt lat="46.043310491368175" lon="8.811165327206254">
        <ele>1169.9200000000001</ele>
        <time>2021-01-31T10:24:28Z</time>
      </trkpt>
      <trkpt lat="46.043371260166168" lon="8.811123417690396">
        <ele>1169.5699999999999</ele>
        <time>2021-01-31T10:24:35Z</time>
      </trkpt>
      <trkpt lat="46.043315017595887" lon="8.811073210090399">
        <ele>1167.96</ele>
        <time>2021-01-31T10:24:43Z</time>
      </trkpt>
      <trkpt lat="46.043165316805243" lon="8.811051836237311">
        <ele>1165.6600000000001</ele>
        <time>2021-01-31T10:24:57Z</time>
      </trkpt>
      <trkpt lat="46.043155929073691" lon="8.811051836237311">
        <ele>1165.5</ele>
        <time>2021-01-31T10:24:58Z</time>
      </trkpt>
      <trkpt lat="46.043112510815263" lon="8.81108888424933">
        <ele>1164.72</ele>
        <time>2021-01-31T10:25:08Z</time>
      </trkpt>
      <trkpt lat="46.04312164708972" lon="8.811070527881384">
        <ele>1164.6300000000001</ele>
        <time>2021-01-31T10:25:23Z</time>
      </trkpt>
      <trkpt lat="46.043094489723444" lon="8.811004981398583">
        <ele>1164.0699999999999</ele>
        <time>2021-01-31T10:25:30Z</time>
      </trkpt>
      <trkpt lat="46.043215440586209" lon="8.810953767970204">
        <ele>1163.99</ele>
        <time>2021-01-31T10:25:43Z</time>
      </trkpt>
      <trkpt lat="46.043303618207574" lon="8.810959635302424">
        <ele>1164.24</ele>
        <time>2021-01-31T10:25:52Z</time>
      </trkpt>
      <trkpt lat="46.043385844677687" lon="8.810913702473044">
        <ele>1164.3299999999999</ele>
        <time>2021-01-31T10:26:02Z</time>
      </trkpt>
      <trkpt lat="46.043423479422927" lon="8.810864919796586">
        <ele>1164.3</ele>
        <time>2021-01-31T10:26:11Z</time>
      </trkpt>
      <trkpt lat="46.04340554215014" lon="8.810890736058354">
        <ele>1164.24</ele>
        <time>2021-01-31T10:26:14Z</time>
      </trkpt>
      <trkpt lat="46.04336648248136" lon="8.810922587290406">
        <ele>1164.3800000000001</ele>
        <time>2021-01-31T10:26:18Z</time>
      </trkpt>
      <trkpt lat="46.043334966525435" lon="8.810939183458686">
        <ele>1164.3</ele>
        <time>2021-01-31T10:26:21Z</time>
      </trkpt>
      <trkpt lat="46.04316858574748" lon="8.810907248407602">
        <ele>1164.0899999999999</ele>
        <time>2021-01-31T10:26:37Z</time>
      </trkpt>
      <trkpt lat="46.043066410347819" lon="8.81097799167037">
        <ele>1164.2</ele>
        <time>2021-01-31T10:26:50Z</time>
      </trkpt>
      <trkpt lat="46.043043192476034" lon="8.811026019975543">
        <ele>1164.1300000000001</ele>
        <time>2021-01-31T10:27:02Z</time>
      </trkpt>
      <trkpt lat="46.04303858242929" lon="8.810996934771538">
        <ele>1162.8499999999999</ele>
        <time>2021-01-31T10:27:17Z</time>
      </trkpt>
      <trkpt lat="46.04306691326201" lon="8.810982517898083">
        <ele>1163.1800000000001</ele>
        <time>2021-01-31T10:27:43Z</time>
      </trkpt>
      <trkpt lat="46.043053921312094" lon="8.810965837910771">
        <ele>1162.9400000000001</ele>
        <time>2021-01-31T10:28:06Z</time>
      </trkpt>
      <trkpt lat="46.043047215789557" lon="8.810944380238652">
        <ele>1163.1400000000001</ele>
        <time>2021-01-31T10:28:36Z</time>
      </trkpt>
      <trkpt lat="46.043061967939138" lon="8.810963407158852">
        <ele>1163.48</ele>
        <time>2021-01-31T10:29:27Z</time>
      </trkpt>
      <trkpt lat="46.043064901605248" lon="8.810955611988902">
        <ele>1163.5</ele>
        <time>2021-01-31T10:29:46Z</time>
      </trkpt>
      <trkpt lat="46.043050903826952" lon="8.81093692034483">
        <ele>1162.9300000000001</ele>
        <time>2021-01-31T10:30:06Z</time>
      </trkpt>
      <trkpt lat="46.043046964332461" lon="8.810936082154512">
        <ele>1163.29</ele>
        <time>2021-01-31T10:30:38Z</time>
      </trkpt>
      <trkpt lat="46.043045707046986" lon="8.810932310298085">
        <ele>1164.0799999999999</ele>
        <time>2021-01-31T10:31:41Z</time>
      </trkpt>
      <trkpt lat="46.043019639328122" lon="8.810935076326132">
        <ele>1164.3499999999999</ele>
        <time>2021-01-31T10:32:51Z</time>
      </trkpt>
      <trkpt lat="46.04302785359323" lon="8.810950247570872">
        <ele>1164.8299999999999</ele>
        <time>2021-01-31T10:33:51Z</time>
      </trkpt>
      <trkpt lat="46.043001199141145" lon="8.810928538441658">
        <ele>1165.1300000000001</ele>
        <time>2021-01-31T10:34:57Z</time>
      </trkpt>
      <trkpt lat="46.042994661256671" lon="8.810925353318453">
        <ele>1165.5699999999999</ele>
        <time>2021-01-31T10:35:31Z</time>
      </trkpt>
      <trkpt lat="46.043033469468355" lon="8.810909343883395">
        <ele>1166.0799999999999</ele>
        <time>2021-01-31T10:36:25Z</time>
      </trkpt>
      <trkpt lat="46.043038247153163" lon="8.810927197337151">
        <ele>1166.26</ele>
        <time>2021-01-31T10:37:28Z</time>
      </trkpt>
      <trkpt lat="46.043023578822613" lon="8.810915965586901">
        <ele>1166.8399999999999</ele>
        <time>2021-01-31T10:38:16Z</time>
      </trkpt>
      <trkpt lat="46.043018968775868" lon="8.810926359146833">
        <ele>1167.4000000000001</ele>
        <time>2021-01-31T10:39:16Z</time>
      </trkpt>
      <trkpt lat="46.04304545558989" lon="8.810968520119786">
        <ele>1167.9100000000001</ele>
        <time>2021-01-31T10:40:18Z</time>
      </trkpt>
      <trkpt lat="46.043065320700407" lon="8.810948068276048">
        <ele>1168.4300000000001</ele>
        <time>2021-01-31T10:41:08Z</time>
      </trkpt>
      <trkpt lat="46.04307328350842" lon="8.810938177630305">
        <ele>1168.8900000000001</ele>
        <time>2021-01-31T10:41:50Z</time>
      </trkpt>
      <trkpt lat="46.04304545558989" lon="8.810916803777218">
        <ele>1169.01</ele>
        <time>2021-01-31T10:42:16Z</time>
      </trkpt>
      <trkpt lat="46.043023997917771" lon="8.81092962808907">
        <ele>1169.53</ele>
        <time>2021-01-31T10:42:43Z</time>
      </trkpt>
      <trkpt lat="46.04304444976151" lon="8.810978578403592">
        <ele>1169.3099999999999</ele>
        <time>2021-01-31T10:43:27Z</time>
      </trkpt>
      <trkpt lat="46.043049646541476" lon="8.810944212600589">
        <ele>1169.6099999999999</ele>
        <time>2021-01-31T10:44:14Z</time>
      </trkpt>
      <trkpt lat="46.043052161112428" lon="8.810947230085731">
        <ele>1170.1099999999999</ele>
        <time>2021-01-31T10:44:41Z</time>
      </trkpt>
      <trkpt lat="46.043023830279708" lon="8.81092619150877">
        <ele>1169.9000000000001</ele>
        <time>2021-01-31T10:44:58Z</time>
      </trkpt>
      <trkpt lat="46.043008156120777" lon="8.810953265056014">
        <ele>1170.1500000000001</ele>
        <time>2021-01-31T10:45:31Z</time>
      </trkpt>
      <trkpt lat="46.043000193312764" lon="8.810962401330471">
        <ele>1170.6199999999999</ele>
        <time>2021-01-31T10:46:25Z</time>
      </trkpt>
      <trkpt lat="46.042949147522449" lon="8.810954270884395">
        <ele>1170.6500000000001</ele>
        <time>2021-01-31T10:46:49Z</time>
      </trkpt>
      <trkpt lat="46.043000360950828" lon="8.81096038967371">
        <ele>1170.6700000000001</ele>
        <time>2021-01-31T10:47:14Z</time>
      </trkpt>
      <trkpt lat="46.042978819459677" lon="8.810950834304094">
        <ele>1170.75</ele>
        <time>2021-01-31T10:47:44Z</time>
      </trkpt>
      <trkpt lat="46.043019723147154" lon="8.810941362753511">
        <ele>1170.8699999999999</ele>
        <time>2021-01-31T10:48:10Z</time>
      </trkpt>
      <trkpt lat="46.043017124757171" lon="8.810940189287067">
        <ele>1171.1900000000001</ele>
        <time>2021-01-31T10:48:45Z</time>
      </trkpt>
      <trkpt lat="46.043025506660342" lon="8.810938680544496">
        <ele>1171.23</ele>
        <time>2021-01-31T10:49:07Z</time>
      </trkpt>
      <trkpt lat="46.042992230504751" lon="8.810941362753511">
        <ele>1171.6099999999999</ele>
        <time>2021-01-31T10:49:32Z</time>
      </trkpt>
      <trkpt lat="46.043004551902413" lon="8.810959719121456">
        <ele>1171.9300000000001</ele>
        <time>2021-01-31T10:50:05Z</time>
      </trkpt>
      <trkpt lat="46.04299952276051" lon="8.810974890366197">
        <ele>1172.05</ele>
        <time>2021-01-31T10:50:45Z</time>
      </trkpt>
      <trkpt lat="46.043019387871027" lon="8.810990732163191">
        <ele>1172.0999999999999</ele>
        <time>2021-01-31T10:51:08Z</time>
      </trkpt>
      <trkpt lat="46.043023997917771" lon="8.810978662222624">
        <ele>1172.02</ele>
        <time>2021-01-31T10:51:43Z</time>
      </trkpt>
      <trkpt lat="46.043038247153163" lon="8.811003053560853">
        <ele>1171.9100000000001</ele>
        <time>2021-01-31T10:52:26Z</time>
      </trkpt>
      <trkpt lat="46.043035145848989" lon="8.811004729941487">
        <ele>1172.1600000000001</ele>
        <time>2021-01-31T10:53:19Z</time>
      </trkpt>
      <trkpt lat="46.042984100058675" lon="8.811001293361187">
        <ele>1172.25</ele>
        <time>2021-01-31T10:53:46Z</time>
      </trkpt>
      <trkpt lat="46.042992817237973" lon="8.811019649729133">
        <ele>1172.1099999999999</ele>
        <time>2021-01-31T10:54:11Z</time>
      </trkpt>
      <trkpt lat="46.043012598529458" lon="8.81100288592279">
        <ele>1172.3199999999999</ele>
        <time>2021-01-31T10:54:41Z</time>
      </trkpt>
      <trkpt lat="46.043020226061344" lon="8.810995509847999">
        <ele>1172.3499999999999</ele>
        <time>2021-01-31T10:55:30Z</time>
      </trkpt>
      <trkpt lat="46.042979070916772" lon="8.810992324724793">
        <ele>1172.27</ele>
        <time>2021-01-31T10:56:21Z</time>
      </trkpt>
      <trkpt lat="46.042977059260011" lon="8.810982936993241">
        <ele>1172.3</ele>
        <time>2021-01-31T10:56:51Z</time>
      </trkpt>
      <trkpt lat="46.042992146685719" lon="8.810979081317782">
        <ele>1172.51</ele>
        <time>2021-01-31T10:57:15Z</time>
      </trkpt>
      <trkpt lat="46.042972952127457" lon="8.810987798497081">
        <ele>1172.6800000000001</ele>
        <time>2021-01-31T10:57:38Z</time>
      </trkpt>
      <trkpt lat="46.042945710942149" lon="8.810976315289736">
        <ele>1172.73</ele>
        <time>2021-01-31T10:57:59Z</time>
      </trkpt>
      <trkpt lat="46.042966917157173" lon="8.810981260612607">
        <ele>1172.77</ele>
        <time>2021-01-31T10:58:20Z</time>
      </trkpt>
      <trkpt lat="46.042975131422281" lon="8.811010345816612">
        <ele>1172.74</ele>
        <time>2021-01-31T10:58:46Z</time>
      </trkpt>
      <trkpt lat="46.043026763945818" lon="8.811013614758849">
        <ele>1172.8399999999999</ele>
        <time>2021-01-31T10:59:14Z</time>
      </trkpt>
      <trkpt lat="46.043036486953497" lon="8.811010848730803">
        <ele>1172.72</ele>
        <time>2021-01-31T10:59:39Z</time>
      </trkpt>
      <trkpt lat="46.043039755895734" lon="8.811008585616946">
        <ele>1172.3699999999999</ele>
        <time>2021-01-31T11:00:04Z</time>
      </trkpt>
      <trkpt lat="46.043013352900743" lon="8.810997186228633">
        <ele>1172.1600000000001</ele>
        <time>2021-01-31T11:00:29Z</time>
      </trkpt>
      <trkpt lat="46.043042438104749" lon="8.810975728556514">
        <ele>1173.96</ele>
        <time>2021-01-31T11:00:46Z</time>
      </trkpt>
      <trkpt lat="46.043097674846649" lon="8.81090079434216">
        <ele>1174.02</ele>
        <time>2021-01-31T11:01:00Z</time>
      </trkpt>
      <trkpt lat="46.043091807514429" lon="8.810824016109109">
        <ele>1173.9400000000001</ele>
        <time>2021-01-31T11:01:13Z</time>
      </trkpt>
      <trkpt lat="46.043074289336801" lon="8.810788057744503">
        <ele>1173.96</ele>
        <time>2021-01-31T11:01:31Z</time>
      </trkpt>
      <trkpt lat="46.04309038259089" lon="8.810848323628306">
        <ele>1173.78</ele>
        <time>2021-01-31T11:01:47Z</time>
      </trkpt>
      <trkpt lat="46.043076384812593" lon="8.810861902311444">
        <ele>1173.7</ele>
        <time>2021-01-31T11:02:01Z</time>
      </trkpt>
      <trkpt lat="46.043084682896733" lon="8.810870870947838">
        <ele>1173.9200000000001</ele>
        <time>2021-01-31T11:02:19Z</time>
      </trkpt>
      <trkpt lat="46.043084179982543" lon="8.810843797400594">
        <ele>1173.77</ele>
        <time>2021-01-31T11:02:41Z</time>
      </trkpt>
      <trkpt lat="46.043056435883045" lon="8.810806330293417">
        <ele>1173.8599999999999</ele>
        <time>2021-01-31T11:02:54Z</time>
      </trkpt>
      <trkpt lat="46.043070517480373" lon="8.810800882056356">
        <ele>1173.75</ele>
        <time>2021-01-31T11:03:15Z</time>
      </trkpt>
      <trkpt lat="46.043078983202577" lon="8.810792667791247">
        <ele>1173.3900000000001</ele>
        <time>2021-01-31T11:03:38Z</time>
      </trkpt>
      <trkpt lat="46.043087029829621" lon="8.810787638649344">
        <ele>1173.6800000000001</ele>
        <time>2021-01-31T11:03:55Z</time>
      </trkpt>
      <trkpt lat="46.043154336512089" lon="8.810726199299097">
        <ele>1173.75</ele>
        <time>2021-01-31T11:04:08Z</time>
      </trkpt>
      <trkpt lat="46.043178727850318" lon="8.810657300055027">
        <ele>1173.47</ele>
        <time>2021-01-31T11:04:22Z</time>
      </trkpt>
      <trkpt lat="46.043224409222603" lon="8.810689151287079">
        <ele>1173.5699999999999</ele>
        <time>2021-01-31T11:04:32Z</time>
      </trkpt>
      <trkpt lat="46.043247627094388" lon="8.810691582038999">
        <ele>1173.6500000000001</ele>
        <time>2021-01-31T11:04:34Z</time>
      </trkpt>
      <trkpt lat="46.043387018144131" lon="8.810784034430981">
        <ele>1173.5899999999999</ele>
        <time>2021-01-31T11:04:51Z</time>
      </trkpt>
      <trkpt lat="46.043390370905399" lon="8.810798618942499">
        <ele>1173.5999999999999</ele>
        <time>2021-01-31T11:05:04Z</time>
      </trkpt>
      <trkpt lat="46.043351897969842" lon="8.810720834881067">
        <ele>1173.52</ele>
        <time>2021-01-31T11:05:17Z</time>
      </trkpt>
      <trkpt lat="46.043252656236291" lon="8.810678673908114">
        <ele>1173.6099999999999</ele>
        <time>2021-01-31T11:05:30Z</time>
      </trkpt>
      <trkpt lat="46.04322575032711" lon="8.810689318925142">
        <ele>1173.3199999999999</ele>
        <time>2021-01-31T11:05:43Z</time>
      </trkpt>
      <trkpt lat="46.043203203007579" lon="8.810664089396596">
        <ele>1173.53</ele>
        <time>2021-01-31T11:06:05Z</time>
      </trkpt>
      <trkpt lat="46.043214350938797" lon="8.810673728585243">
        <ele>1173.4000000000001</ele>
        <time>2021-01-31T11:06:24Z</time>
      </trkpt>
      <trkpt lat="46.04321057908237" lon="8.810675237327814">
        <ele>1173.1600000000001</ele>
        <time>2021-01-31T11:06:47Z</time>
      </trkpt>
      <trkpt lat="46.04320814833045" lon="8.810715051367879">
        <ele>1173.4300000000001</ele>
        <time>2021-01-31T11:07:05Z</time>
      </trkpt>
      <trkpt lat="46.0431192163378" lon="8.810803815722466">
        <ele>1173.23</ele>
        <time>2021-01-31T11:07:18Z</time>
      </trkpt>
      <trkpt lat="46.043102368712425" lon="8.810867350548506">
        <ele>1173.45</ele>
        <time>2021-01-31T11:07:29Z</time>
      </trkpt>
      <trkpt lat="46.043095663189888" lon="8.810845809057355">
        <ele>1173.3399999999999</ele>
        <time>2021-01-31T11:07:46Z</time>
      </trkpt>
      <trkpt lat="46.0431416798383" lon="8.810753189027309">
        <ele>1173.3699999999999</ele>
        <time>2021-01-31T11:08:01Z</time>
      </trkpt>
      <trkpt lat="46.043188869953156" lon="8.810726283118129">
        <ele>1173.1600000000001</ele>
        <time>2021-01-31T11:08:17Z</time>
      </trkpt>
      <trkpt lat="46.043189037591219" lon="8.810724690556526">
        <ele>1172.9000000000001</ele>
        <time>2021-01-31T11:08:37Z</time>
      </trkpt>
      <trkpt lat="46.043230528011918" lon="8.810705076903105">
        <ele>1173.0999999999999</ele>
        <time>2021-01-31T11:09:04Z</time>
      </trkpt>
      <trkpt lat="46.043250393122435" lon="8.810694850981236">
        <ele>1173.27</ele>
        <time>2021-01-31T11:09:38Z</time>
      </trkpt>
      <trkpt lat="46.043226253241301" lon="8.810711447149515">
        <ele>1173.05</ele>
        <time>2021-01-31T11:10:06Z</time>
      </trkpt>
      <trkpt lat="46.043219463899732" lon="8.810705998912454">
        <ele>1172.96</ele>
        <time>2021-01-31T11:10:25Z</time>
      </trkpt>
      <trkpt lat="46.043199514970183" lon="8.810685463249683">
        <ele>1173.1900000000001</ele>
        <time>2021-01-31T11:10:47Z</time>
      </trkpt>
      <trkpt lat="46.043186020106077" lon="8.810666184872389">
        <ele>1172.9400000000001</ele>
        <time>2021-01-31T11:11:03Z</time>
      </trkpt>
      <trkpt lat="46.043195491656661" lon="8.810674734413624">
        <ele>1172.8599999999999</ele>
        <time>2021-01-31T11:11:21Z</time>
      </trkpt>
      <trkpt lat="46.043199514970183" lon="8.81067993119359">
        <ele>1172.79</ele>
        <time>2021-01-31T11:11:37Z</time>
      </trkpt>
      <trkpt lat="46.043198173865676" lon="8.810693928971887">
        <ele>1172.6300000000001</ele>
        <time>2021-01-31T11:11:57Z</time>
      </trkpt>
      <trkpt lat="46.043201358988881" lon="8.810695018619299">
        <ele>1172.49</ele>
        <time>2021-01-31T11:12:12Z</time>
      </trkpt>
      <trkpt lat="46.043200269341469" lon="8.810691833496094">
        <ele>1172.7</ele>
        <time>2021-01-31T11:12:29Z</time>
      </trkpt>
      <trkpt lat="46.043207813054323" lon="8.81071605719626">
        <ele>1172.21</ele>
        <time>2021-01-31T11:12:47Z</time>
      </trkpt>
      <trkpt lat="46.043211417272687" lon="8.810725193470717">
        <ele>1172.3299999999999</ele>
        <time>2021-01-31T11:13:03Z</time>
      </trkpt>
      <trkpt lat="46.043208232149482" lon="8.810761487111449">
        <ele>1172.54</ele>
        <time>2021-01-31T11:13:07Z</time>
      </trkpt>
      <trkpt lat="46.043192474171519" lon="8.810779843479395">
        <ele>1172.5</ele>
        <time>2021-01-31T11:13:09Z</time>
      </trkpt>
      <trkpt lat="46.043099518865347" lon="8.810841785743833">
        <ele>1172.28</ele>
        <time>2021-01-31T11:13:24Z</time>
      </trkpt>
      <trkpt lat="46.043103206902742" lon="8.810851592570543">
        <ele>1172.45</ele>
        <time>2021-01-31T11:13:35Z</time>
      </trkpt>
      <trkpt lat="46.043087365105748" lon="8.810813874006271">
        <ele>1172.8699999999999</ele>
        <time>2021-01-31T11:13:46Z</time>
      </trkpt>
      <trkpt lat="46.043101781979203" lon="8.810824435204268">
        <ele>1172.29</ele>
        <time>2021-01-31T11:14:05Z</time>
      </trkpt>
      <trkpt lat="46.043094741180539" lon="8.810815969482064">
        <ele>1171.9300000000001</ele>
        <time>2021-01-31T11:14:23Z</time>
      </trkpt>
      <trkpt lat="46.043092394247651" lon="8.810818316414952">
        <ele>1172.26</ele>
        <time>2021-01-31T11:14:34Z</time>
      </trkpt>
      <trkpt lat="46.043099435046315" lon="8.810843713581562">
        <ele>1172</ele>
        <time>2021-01-31T11:14:41Z</time>
      </trkpt>
      <trkpt lat="46.043120808899403" lon="8.810882521793246">
        <ele>1172.1800000000001</ele>
        <time>2021-01-31T11:14:45Z</time>
      </trkpt>
      <trkpt lat="46.043197084218264" lon="8.810904650017619">
        <ele>1171.8800000000001</ele>
        <time>2021-01-31T11:14:53Z</time>
      </trkpt>
      <trkpt lat="46.043227426707745" lon="8.810935160145164">
        <ele>1172</ele>
        <time>2021-01-31T11:14:57Z</time>
      </trkpt>
      <trkpt lat="46.043339157477021" lon="8.810933819040656">
        <ele>1172.23</ele>
        <time>2021-01-31T11:15:09Z</time>
      </trkpt>
      <trkpt lat="46.043360782787204" lon="8.810931136831641">
        <ele>1172.4000000000001</ele>
        <time>2021-01-31T11:15:12Z</time>
      </trkpt>
      <trkpt lat="46.043382324278355" lon="8.810916133224964">
        <ele>1172.24</ele>
        <time>2021-01-31T11:15:15Z</time>
      </trkpt>
      <trkpt lat="46.043378552421927" lon="8.810820998623967">
        <ele>1172.3</ele>
        <time>2021-01-31T11:15:20Z</time>
      </trkpt>
      <trkpt lat="46.043393723666668" lon="8.810746734961867">
        <ele>1172.24</ele>
        <time>2021-01-31T11:15:31Z</time>
      </trkpt>
      <trkpt lat="46.04339087381959" lon="8.810742627829313">
        <ele>1172.1400000000001</ele>
        <time>2021-01-31T11:15:37Z</time>
      </trkpt>
      <trkpt lat="46.043443428352475" lon="8.810825943946838">
        <ele>1172.3499999999999</ele>
        <time>2021-01-31T11:15:44Z</time>
      </trkpt>
      <trkpt lat="46.043582987040281" lon="8.810832062736154">
        <ele>1172.4200000000001</ele>
        <time>2021-01-31T11:15:56Z</time>
      </trkpt>
      <trkpt lat="46.043631015345454" lon="8.810821417719126">
        <ele>1172.3</ele>
        <time>2021-01-31T11:16:03Z</time>
      </trkpt>
      <trkpt lat="46.043735034763813" lon="8.810781519860029">
        <ele>1170.3199999999999</ele>
        <time>2021-01-31T11:16:16Z</time>
      </trkpt>
      <trkpt lat="46.043796138837934" lon="8.810771964490414">
        <ele>1169.96</ele>
        <time>2021-01-31T11:16:23Z</time>
      </trkpt>
      <trkpt lat="46.043908875435591" lon="8.810813119634986">
        <ele>1169.6199999999999</ele>
        <time>2021-01-31T11:16:36Z</time>
      </trkpt>
      <trkpt lat="46.043908791616559" lon="8.810816137120128">
        <ele>1169.6099999999999</ele>
        <time>2021-01-31T11:16:49Z</time>
      </trkpt>
      <trkpt lat="46.043905774131417" lon="8.810819322243333">
        <ele>1169.4300000000001</ele>
        <time>2021-01-31T11:17:02Z</time>
      </trkpt>
      <trkpt lat="46.043897476047277" lon="8.810819908976555">
        <ele>1169.3699999999999</ele>
        <time>2021-01-31T11:17:11Z</time>
      </trkpt>
      <trkpt lat="46.043892614543438" lon="8.810816304758191">
        <ele>1169.95</ele>
        <time>2021-01-31T11:17:28Z</time>
      </trkpt>
      <trkpt lat="46.043879957869649" lon="8.810809515416622">
        <ele>1169.74</ele>
        <time>2021-01-31T11:17:42Z</time>
      </trkpt>
      <trkpt lat="46.043862691149116" lon="8.810784537345171">
        <ele>1169.77</ele>
        <time>2021-01-31T11:17:45Z</time>
      </trkpt>
      <trkpt lat="46.043826648965478" lon="8.810674315318465">
        <ele>1169.5599999999999</ele>
        <time>2021-01-31T11:17:54Z</time>
      </trkpt>
      <trkpt lat="46.043832851573825" lon="8.810637854039669">
        <ele>1168.53</ele>
        <time>2021-01-31T11:17:56Z</time>
      </trkpt>
      <trkpt lat="46.043842239305377" lon="8.810621006414294">
        <ele>1167.75</ele>
        <time>2021-01-31T11:17:57Z</time>
      </trkpt>
      <trkpt lat="46.043855231255293" lon="8.810592088848352">
        <ele>1167.1199999999999</ele>
        <time>2021-01-31T11:17:59Z</time>
      </trkpt>
      <trkpt lat="46.043883813545108" lon="8.810531655326486">
        <ele>1165.9400000000001</ele>
        <time>2021-01-31T11:18:03Z</time>
      </trkpt>
      <trkpt lat="46.043967632576823" lon="8.810417326167226">
        <ele>1164.1700000000001</ele>
        <time>2021-01-31T11:18:11Z</time>
      </trkpt>
      <trkpt lat="46.04406469501555" lon="8.810255136340857">
        <ele>1161.78</ele>
        <time>2021-01-31T11:18:22Z</time>
      </trkpt>
      <trkpt lat="46.044088499620557" lon="8.810060927644372">
        <ele>1160.8299999999999</ele>
        <time>2021-01-31T11:18:33Z</time>
      </trkpt>
      <trkpt lat="46.044095372781157" lon="8.809897480532527">
        <ele>1159.3599999999999</ele>
        <time>2021-01-31T11:18:42Z</time>
      </trkpt>
      <trkpt lat="46.044123200699687" lon="8.809691956266761">
        <ele>1157.03</ele>
        <time>2021-01-31T11:18:54Z</time>
      </trkpt>
      <trkpt lat="46.044093025848269" lon="8.809599671512842">
        <ele>1155.7</ele>
        <time>2021-01-31T11:19:00Z</time>
      </trkpt>
      <trkpt lat="46.044065784662962" lon="8.809551810845733">
        <ele>1155.1700000000001</ele>
        <time>2021-01-31T11:19:04Z</time>
      </trkpt>
      <trkpt lat="46.044055977836251" lon="8.809397919103503">
        <ele>1153.05</ele>
        <time>2021-01-31T11:19:14Z</time>
      </trkpt>
      <trkpt lat="46.044056229293346" lon="8.809349471703172">
        <ele>1152.1099999999999</ele>
        <time>2021-01-31T11:19:17Z</time>
      </trkpt>
      <trkpt lat="46.044014990329742" lon="8.809147216379643">
        <ele>1149.28</ele>
        <time>2021-01-31T11:19:31Z</time>
      </trkpt>
      <trkpt lat="46.043977607041597" lon="8.808969855308533">
        <ele>1146.3800000000001</ele>
        <time>2021-01-31T11:19:43Z</time>
      </trkpt>
      <trkpt lat="46.043946510180831" lon="8.808827446773648">
        <ele>1143.8599999999999</ele>
        <time>2021-01-31T11:19:53Z</time>
      </trkpt>
      <trkpt lat="46.043888926506042" lon="8.808681769296527">
        <ele>1140.5699999999999</ele>
        <time>2021-01-31T11:20:05Z</time>
      </trkpt>
      <trkpt lat="46.043851459398866" lon="8.808550760149956">
        <ele>1137.46</ele>
        <time>2021-01-31T11:20:16Z</time>
      </trkpt>
      <trkpt lat="46.043820613995194" lon="8.808414554223418">
        <ele>1134.3599999999999</ele>
        <time>2021-01-31T11:20:26Z</time>
      </trkpt>
      <trkpt lat="46.043815752491355" lon="8.808397874236107">
        <ele>1134.23</ele>
        <time>2021-01-31T11:20:27Z</time>
      </trkpt>
      <trkpt lat="46.043798066675663" lon="8.808324867859483">
        <ele>1132.96</ele>
        <time>2021-01-31T11:20:31Z</time>
      </trkpt>
      <trkpt lat="46.04382237419486" lon="8.808167623355985">
        <ele>1130.48</ele>
        <time>2021-01-31T11:20:42Z</time>
      </trkpt>
      <trkpt lat="46.043833857402205" lon="8.80811414681375">
        <ele>1129.71</ele>
        <time>2021-01-31T11:20:46Z</time>
      </trkpt>
      <trkpt lat="46.04386679828167" lon="8.80801641382277">
        <ele>1128.3</ele>
        <time>2021-01-31T11:20:53Z</time>
      </trkpt>
      <trkpt lat="46.043873419985175" lon="8.807982383295894">
        <ele>1127.6800000000001</ele>
        <time>2021-01-31T11:20:55Z</time>
      </trkpt>
      <trkpt lat="46.043941900134087" lon="8.807816924527288">
        <ele>1126.3</ele>
        <time>2021-01-31T11:21:08Z</time>
      </trkpt>
      <trkpt lat="46.043946677818894" lon="8.807804267853499">
        <ele>1126.0599999999999</ele>
        <time>2021-01-31T11:21:09Z</time>
      </trkpt>
      <trkpt lat="46.043921867385507" lon="8.80766412243247">
        <ele>1124.1800000000001</ele>
        <time>2021-01-31T11:21:21Z</time>
      </trkpt>
      <trkpt lat="46.043894374743104" lon="8.807589691132307">
        <ele>1121.0999999999999</ele>
        <time>2021-01-31T11:21:30Z</time>
      </trkpt>
      <trkpt lat="46.043891692534089" lon="8.807493885979056">
        <ele>1117.9000000000001</ele>
        <time>2021-01-31T11:21:39Z</time>
      </trkpt>
      <trkpt lat="46.043888088315725" lon="8.807450300082564">
        <ele>1116.0699999999999</ele>
        <time>2021-01-31T11:21:54Z</time>
      </trkpt>
      <trkpt lat="46.043870318681002" lon="8.807441834360361">
        <ele>1116.5</ele>
        <time>2021-01-31T11:22:13Z</time>
      </trkpt>
      <trkpt lat="46.043874677270651" lon="8.807428171858192">
        <ele>1114.9400000000001</ele>
        <time>2021-01-31T11:22:18Z</time>
      </trkpt>
      <trkpt lat="46.043877946212888" lon="8.807432111352682">
        <ele>1116.23</ele>
        <time>2021-01-31T11:22:33Z</time>
      </trkpt>
      <trkpt lat="46.04384777136147" lon="8.807413084432483">
        <ele>1116.3900000000001</ele>
        <time>2021-01-31T11:22:51Z</time>
      </trkpt>
      <trkpt lat="46.043850034475327" lon="8.807391291484237">
        <ele>1117.4400000000001</ele>
        <time>2021-01-31T11:23:08Z</time>
      </trkpt>
      <trkpt lat="46.043847855180502" lon="8.807370252907276">
        <ele>1116.5</ele>
        <time>2021-01-31T11:23:10Z</time>
      </trkpt>
      <trkpt lat="46.04384534060955" lon="8.807349381968379">
        <ele>1116.25</ele>
        <time>2021-01-31T11:23:11Z</time>
      </trkpt>
      <trkpt lat="46.0438496991992" lon="8.807246787473559">
        <ele>1114.46</ele>
        <time>2021-01-31T11:23:18Z</time>
      </trkpt>
      <trkpt lat="46.043925303965807" lon="8.807148551568389">
        <ele>1113.5899999999999</ele>
        <time>2021-01-31T11:23:30Z</time>
      </trkpt>
      <trkpt lat="46.043935110792518" lon="8.807096499949694">
        <ele>1112.72</ele>
        <time>2021-01-31T11:23:39Z</time>
      </trkpt>
      <trkpt lat="46.043949527665973" lon="8.806987870484591">
        <ele>1109.3599999999999</ele>
        <time>2021-01-31T11:23:50Z</time>
      </trkpt>
      <trkpt lat="46.04396696202457" lon="8.806870859116316">
        <ele>1106.21</ele>
        <time>2021-01-31T11:24:01Z</time>
      </trkpt>
      <trkpt lat="46.044042650610209" lon="8.806792153045535">
        <ele>1103.45</ele>
        <time>2021-01-31T11:24:13Z</time>
      </trkpt>
      <trkpt lat="46.044105514883995" lon="8.806710932403803">
        <ele>1101.8399999999999</ele>
        <time>2021-01-31T11:24:24Z</time>
      </trkpt>
      <trkpt lat="46.044162344187498" lon="8.806612361222506">
        <ele>1098.5999999999999</ele>
        <time>2021-01-31T11:24:36Z</time>
      </trkpt>
      <trkpt lat="46.044200817123055" lon="8.806565925478935">
        <ele>1097.23</ele>
        <time>2021-01-31T11:24:42Z</time>
      </trkpt>
      <trkpt lat="46.044239709153771" lon="8.80646743811667">
        <ele>1093.8299999999999</ele>
        <time>2021-01-31T11:24:53Z</time>
      </trkpt>
      <trkpt lat="46.044264351949096" lon="8.80636534653604">
        <ele>1092.26</ele>
        <time>2021-01-31T11:25:02Z</time>
      </trkpt>
      <trkpt lat="46.044282456859946" lon="8.806271050125361">
        <ele>1090.8499999999999</ele>
        <time>2021-01-31T11:25:12Z</time>
      </trkpt>
      <trkpt lat="46.044265693053603" lon="8.806245485320687">
        <ele>1090.76</ele>
        <time>2021-01-31T11:25:31Z</time>
      </trkpt>
      <trkpt lat="46.044269381090999" lon="8.806236265227199">
        <ele>1090.52</ele>
        <time>2021-01-31T11:25:48Z</time>
      </trkpt>
      <trkpt lat="46.044271308928728" lon="8.806238528341055">
        <ele>1090.3800000000001</ele>
        <time>2021-01-31T11:26:05Z</time>
      </trkpt>
      <trkpt lat="46.044280864298344" lon="8.80618354305625">
        <ele>1089.99</ele>
        <time>2021-01-31T11:26:18Z</time>
      </trkpt>
      <trkpt lat="46.044275499880314" lon="8.806190583854914">
        <ele>1090.01</ele>
        <time>2021-01-31T11:26:36Z</time>
      </trkpt>
      <trkpt lat="46.044269129633904" lon="8.806205084547401">
        <ele>1089.6300000000001</ele>
        <time>2021-01-31T11:26:52Z</time>
      </trkpt>
      <trkpt lat="46.044255550950766" lon="8.806197457015514">
        <ele>1089.4400000000001</ele>
        <time>2021-01-31T11:27:14Z</time>
      </trkpt>
      <trkpt lat="46.044265693053603" lon="8.80619871430099">
        <ele>1089.3699999999999</ele>
        <time>2021-01-31T11:27:30Z</time>
      </trkpt>
      <trkpt lat="46.044268291443586" lon="8.806203408166766">
        <ele>1089.54</ele>
        <time>2021-01-31T11:27:44Z</time>
      </trkpt>
      <trkpt lat="46.044262759387493" lon="8.806216232478619">
        <ele>1089.6300000000001</ele>
        <time>2021-01-31T11:28:03Z</time>
      </trkpt>
      <trkpt lat="46.044269632548094" lon="8.806176334619522">
        <ele>1089.6199999999999</ele>
        <time>2021-01-31T11:28:29Z</time>
      </trkpt>
      <trkpt lat="46.044265776872635" lon="8.80617524497211">
        <ele>1089.48</ele>
        <time>2021-01-31T11:28:48Z</time>
      </trkpt>
      <trkpt lat="46.044284049421549" lon="8.806173233315349">
        <ele>1089.53</ele>
        <time>2021-01-31T11:29:12Z</time>
      </trkpt>
      <trkpt lat="46.044291844591498" lon="8.806173568591476">
        <ele>1089.46</ele>
        <time>2021-01-31T11:29:32Z</time>
      </trkpt>
      <trkpt lat="46.044290503486991" lon="8.806177172809839">
        <ele>1089.6400000000001</ele>
        <time>2021-01-31T11:29:57Z</time>
      </trkpt>
      <trkpt lat="46.044289413839579" lon="8.806187985464931">
        <ele>1089.79</ele>
        <time>2021-01-31T11:30:18Z</time>
      </trkpt>
      <trkpt lat="46.044288156554103" lon="8.806181531399488">
        <ele>1089.5</ele>
        <time>2021-01-31T11:30:34Z</time>
      </trkpt>
      <trkpt lat="46.044278768822551" lon="8.806198379024863">
        <ele>1089.3099999999999</ele>
        <time>2021-01-31T11:30:53Z</time>
      </trkpt>
      <trkpt lat="46.044278936460614" lon="8.806192176416516">
        <ele>1088.95</ele>
        <time>2021-01-31T11:31:14Z</time>
      </trkpt>
      <trkpt lat="46.044272482395172" lon="8.806192176416516">
        <ele>1089.49</ele>
        <time>2021-01-31T11:31:23Z</time>
      </trkpt>
      <trkpt lat="46.044265860691667" lon="8.806191002950072">
        <ele>1089.28</ele>
        <time>2021-01-31T11:31:36Z</time>
      </trkpt>
      <trkpt lat="46.0442606639117" lon="8.806202821433544">
        <ele>1089.4100000000001</ele>
        <time>2021-01-31T11:31:58Z</time>
      </trkpt>
      <trkpt lat="46.044263681396842" lon="8.806212628260255">
        <ele>1089.3900000000001</ele>
        <time>2021-01-31T11:32:19Z</time>
      </trkpt>
      <trkpt lat="46.044264100492001" lon="8.806205419823527">
        <ele>1089.4100000000001</ele>
        <time>2021-01-31T11:32:30Z</time>
      </trkpt>
      <trkpt lat="46.044276338070631" lon="8.806196115911007">
        <ele>1088.74</ele>
        <time>2021-01-31T11:32:50Z</time>
      </trkpt>
      <trkpt lat="46.044255634769797" lon="8.806209862232208">
        <ele>1088.8199999999999</ele>
        <time>2021-01-31T11:33:14Z</time>
      </trkpt>
      <trkpt lat="46.044261418282986" lon="8.806162420660257">
        <ele>1088.3800000000001</ele>
        <time>2021-01-31T11:33:32Z</time>
      </trkpt>
      <trkpt lat="46.044260496273637" lon="8.806134592741728">
        <ele>1088.29</ele>
        <time>2021-01-31T11:33:43Z</time>
      </trkpt>
      <trkpt lat="46.044260999187827" lon="8.80606678314507">
        <ele>1087.28</ele>
        <time>2021-01-31T11:33:52Z</time>
      </trkpt>
      <trkpt lat="46.044271308928728" lon="8.806006768718362">
        <ele>1086.98</ele>
        <time>2021-01-31T11:34:03Z</time>
      </trkpt>
      <trkpt lat="46.044304668903351" lon="8.805967457592487">
        <ele>1086.25</ele>
        <time>2021-01-31T11:34:15Z</time>
      </trkpt>
      <trkpt lat="46.04435789398849" lon="8.805839214473963">
        <ele>1084.3399999999999</ele>
        <time>2021-01-31T11:34:26Z</time>
      </trkpt>
      <trkpt lat="46.04433978907764" lon="8.805679120123386">
        <ele>1081.6600000000001</ele>
        <time>2021-01-31T11:34:37Z</time>
      </trkpt>
      <trkpt lat="46.044344315305352" lon="8.805630085989833">
        <ele>1080.5899999999999</ele>
        <time>2021-01-31T11:34:40Z</time>
      </trkpt>
      <trkpt lat="46.044369880110025" lon="8.805528748780489">
        <ele>1079.5599999999999</ele>
        <time>2021-01-31T11:34:46Z</time>
      </trkpt>
      <trkpt lat="46.044398630037904" lon="8.805465549230576">
        <ele>1079.1800000000001</ele>
        <time>2021-01-31T11:34:50Z</time>
      </trkpt>
      <trkpt lat="46.044431738555431" lon="8.80529036745429">
        <ele>1078.4200000000001</ele>
        <time>2021-01-31T11:35:04Z</time>
      </trkpt>
      <trkpt lat="46.044440539553761" lon="8.805200513452292">
        <ele>1077.1600000000001</ele>
        <time>2021-01-31T11:35:15Z</time>
      </trkpt>
      <trkpt lat="46.044451352208853" lon="8.80508660338819">
        <ele>1074.8599999999999</ele>
        <time>2021-01-31T11:35:23Z</time>
      </trkpt>
      <trkpt lat="46.044483371078968" lon="8.804842019453645">
        <ele>1071.55</ele>
        <time>2021-01-31T11:35:37Z</time>
      </trkpt>
      <trkpt lat="46.044490495696664" lon="8.804669016972184">
        <ele>1071.3199999999999</ele>
        <time>2021-01-31T11:35:49Z</time>
      </trkpt>
      <trkpt lat="46.044497536495328" lon="8.804630795493722">
        <ele>1071.0899999999999</ele>
        <time>2021-01-31T11:35:52Z</time>
      </trkpt>
      <trkpt lat="46.044493429362774" lon="8.804511604830623">
        <ele>1071.22</ele>
        <time>2021-01-31T11:36:02Z</time>
      </trkpt>
      <trkpt lat="46.044500637799501" lon="8.804494002833962">
        <ele>1071.5799999999999</ele>
        <time>2021-01-31T11:36:04Z</time>
      </trkpt>
      <trkpt lat="46.044518994167447" lon="8.804319575428963">
        <ele>1072.4200000000001</ele>
        <time>2021-01-31T11:36:16Z</time>
      </trkpt>
      <trkpt lat="46.044526034966111" lon="8.804169623181224">
        <ele>1073.1900000000001</ele>
        <time>2021-01-31T11:36:28Z</time>
      </trkpt>
      <trkpt lat="46.044559814035892" lon="8.803941886872053">
        <ele>1072.45</ele>
        <time>2021-01-31T11:36:42Z</time>
      </trkpt>
      <trkpt lat="46.04459241963923" lon="8.803741475567222">
        <ele>1071.05</ele>
        <time>2021-01-31T11:36:55Z</time>
      </trkpt>
      <trkpt lat="46.044658049941063" lon="8.803544668480754">
        <ele>1069.77</ele>
        <time>2021-01-31T11:37:07Z</time>
      </trkpt>
      <trkpt lat="46.044678837060928" lon="8.803469063714147">
        <ele>1069.1900000000001</ele>
        <time>2021-01-31T11:37:14Z</time>
      </trkpt>
      <trkpt lat="46.044694846495986" lon="8.803420700132847">
        <ele>1069.05</ele>
        <time>2021-01-31T11:37:18Z</time>
      </trkpt>
      <trkpt lat="46.044732145965099" lon="8.803310226649046">
        <ele>1067.74</ele>
        <time>2021-01-31T11:37:27Z</time>
      </trkpt>
      <trkpt lat="46.044746479019523" lon="8.803200423717499">
        <ele>1065.5999999999999</ele>
        <time>2021-01-31T11:37:34Z</time>
      </trkpt>
      <trkpt lat="46.044773804023862" lon="8.803061870858073">
        <ele>1062.0999999999999</ele>
        <time>2021-01-31T11:37:43Z</time>
      </trkpt>
      <trkpt lat="46.044832477346063" lon="8.802947038784623">
        <ele>1058.9200000000001</ele>
        <time>2021-01-31T11:37:54Z</time>
      </trkpt>
      <trkpt lat="46.044823508709669" lon="8.80293320864439">
        <ele>1058.3199999999999</ele>
        <time>2021-01-31T11:37:56Z</time>
      </trkpt>
      <trkpt lat="46.044803056865931" lon="8.802886605262756">
        <ele>1057.03</ele>
        <time>2021-01-31T11:38:00Z</time>
      </trkpt>
      <trkpt lat="46.044834237545729" lon="8.802716368809342">
        <ele>1054.3199999999999</ele>
        <time>2021-01-31T11:38:13Z</time>
      </trkpt>
      <trkpt lat="46.044875057414174" lon="8.802583515644074">
        <ele>1050.9000000000001</ele>
        <time>2021-01-31T11:38:24Z</time>
      </trkpt>
      <trkpt lat="46.044880421832204" lon="8.802521741017699">
        <ele>1047.8199999999999</ele>
        <time>2021-01-31T11:38:32Z</time>
      </trkpt>
      <trkpt lat="46.044853683561087" lon="8.802447812631726">
        <ele>1044.46</ele>
        <time>2021-01-31T11:38:42Z</time>
      </trkpt>
      <trkpt lat="46.044875225052238" lon="8.80236248485744">
        <ele>1041.29</ele>
        <time>2021-01-31T11:38:50Z</time>
      </trkpt>
      <trkpt lat="46.044893832877278" lon="8.802255615592003">
        <ele>1037.97</ele>
        <time>2021-01-31T11:38:58Z</time>
      </trkpt>
      <trkpt lat="46.044906573370099" lon="8.802203144878149">
        <ele>1036.4300000000001</ele>
        <time>2021-01-31T11:39:01Z</time>
      </trkpt>
      <trkpt lat="46.044937334954739" lon="8.80208445712924">
        <ele>1032.5699999999999</ele>
        <time>2021-01-31T11:39:11Z</time>
      </trkpt>
      <trkpt lat="46.044936496764421" lon="8.802006337791681">
        <ele>1030.46</ele>
        <time>2021-01-31T11:39:16Z</time>
      </trkpt>
      <trkpt lat="46.044931802898645" lon="8.801952274516225">
        <ele>1029.02</ele>
        <time>2021-01-31T11:39:19Z</time>
      </trkpt>
      <trkpt lat="46.044947141781449" lon="8.801853870972991">
        <ele>1025.4400000000001</ele>
        <time>2021-01-31T11:39:28Z</time>
      </trkpt>
      <trkpt lat="46.044957200065255" lon="8.801754210144281">
        <ele>1022.36</ele>
        <time>2021-01-31T11:39:37Z</time>
      </trkpt>
      <trkpt lat="46.044969521462917" lon="8.801634600386024">
        <ele>1019.0700000000001</ele>
        <time>2021-01-31T11:39:48Z</time>
      </trkpt>
      <trkpt lat="46.045047724619508" lon="8.801533682271838">
        <ele>1016.3200000000001</ele>
        <time>2021-01-31T11:39:58Z</time>
      </trkpt>
      <trkpt lat="46.045080246403813" lon="8.801433015614748">
        <ele>1012.6900000000001</ele>
        <time>2021-01-31T11:40:05Z</time>
      </trkpt>
      <trkpt lat="46.045093405991793" lon="8.801395297050476">
        <ele>1010.97</ele>
        <time>2021-01-31T11:40:08Z</time>
      </trkpt>
      <trkpt lat="46.045121736824512" lon="8.801357997581363">
        <ele>1009.01</ele>
        <time>2021-01-31T11:40:11Z</time>
      </trkpt>
      <trkpt lat="46.045150654390454" lon="8.80124400369823">
        <ele>1005.01</ele>
        <time>2021-01-31T11:40:17Z</time>
      </trkpt>
      <trkpt lat="46.045178482308984" lon="8.801171416416764">
        <ele>1002.47</ele>
        <time>2021-01-31T11:40:22Z</time>
      </trkpt>
      <trkpt lat="46.045192396268249" lon="8.801128920167685">
        <ele>1001.96</ele>
        <time>2021-01-31T11:40:24Z</time>
      </trkpt>
      <trkpt lat="46.04523791000247" lon="8.8010383117944">
        <ele>1001.17</ele>
        <time>2021-01-31T11:40:35Z</time>
      </trkpt>
      <trkpt lat="46.045241178944707" lon="8.800977794453502">
        <ele>999.57000000000005</ele>
        <time>2021-01-31T11:40:45Z</time>
      </trkpt>
      <trkpt lat="46.045256014913321" lon="8.80098408088088">
        <ele>999.87</ele>
        <time>2021-01-31T11:41:01Z</time>
      </trkpt>
      <trkpt lat="46.045241849496961" lon="8.800982991233468">
        <ele>999.65999999999997</ele>
        <time>2021-01-31T11:41:21Z</time>
      </trkpt>
      <trkpt lat="46.045229863375425" lon="8.801020542159677">
        <ele>999.54999999999995</ele>
        <time>2021-01-31T11:41:40Z</time>
      </trkpt>
      <trkpt lat="46.045185271650553" lon="8.80095424130559">
        <ele>999</ele>
        <time>2021-01-31T11:41:48Z</time>
      </trkpt>
      <trkpt lat="46.045173788443208" lon="8.800917528569698">
        <ele>998.74000000000001</ele>
        <time>2021-01-31T11:41:50Z</time>
      </trkpt>
      <trkpt lat="46.045151241123676" lon="8.800814347341657">
        <ele>997.90999999999997</ele>
        <time>2021-01-31T11:41:56Z</time>
      </trkpt>
      <trkpt lat="46.045091310516" lon="8.800776042044163">
        <ele>997.15999999999997</ele>
        <time>2021-01-31T11:42:07Z</time>
      </trkpt>
      <trkpt lat="46.044997181743383" lon="8.800865896046162">
        <ele>996.83000000000004</ele>
        <time>2021-01-31T11:42:18Z</time>
      </trkpt>
      <trkpt lat="46.044889641925693" lon="8.800906799733639">
        <ele>996.47000000000003</ele>
        <time>2021-01-31T11:42:32Z</time>
      </trkpt>
      <trkpt lat="46.044863993301988" lon="8.800898836925626">
        <ele>996.63999999999999</ele>
        <time>2021-01-31T11:42:49Z</time>
      </trkpt>
      <trkpt lat="46.044873716309667" lon="8.800901100039482">
        <ele>996.25</ele>
        <time>2021-01-31T11:43:08Z</time>
      </trkpt>
    </trkseg>
  </trk>

</gpx>